<?xml version="1.0" encoding="UTF-8" standalone="no" ?>
<gpx xmlns="http://www.topografix.com/GPX/1/1" xmlns:xsi="http://www.w3.org/2001/XMLSchema-instance" xsi:schemaLocation="http://www.topografix.com/GPX/1/1 http://www.topografix.com/GPX/1/1/gpx.xsd" version="1.1" creator="VisuGPX - https://www.visugpx.com">
  <metadata>
    <name>Beaucaire: vue sur le Rhône</name>
    <desc><![CDATA[Vue sur le Rhône et le long du Rhône]]></desc>
  </metadata>
  <trk>
    <name><![CDATA[BEAUCIARE9 16:59:53]]></name>
    <trkseg>
      <trkpt lat="43.8111" lon="4.64435">
        <ele>9.75</ele>
        <time>2014-11-19T13:01:29Z</time>
      </trkpt>
      <trkpt lat="43.81124" lon="4.64448">
        <ele>16.96</ele>
        <time>2014-11-19T13:01:56Z</time>
      </trkpt>
      <trkpt lat="43.81129" lon="4.64453">
        <ele>10.23</ele>
        <time>2014-11-19T13:02:20Z</time>
      </trkpt>
      <trkpt lat="43.81138" lon="4.64453">
        <ele>6.39</ele>
        <time>2014-11-19T13:02:42Z</time>
      </trkpt>
      <trkpt lat="43.8114" lon="4.64455">
        <ele>6.39</ele>
        <time>2014-11-19T13:02:59Z</time>
      </trkpt>
      <trkpt lat="43.81137" lon="4.64455">
        <ele>8.79</ele>
        <time>2014-11-19T13:03:15Z</time>
      </trkpt>
      <trkpt lat="43.81135" lon="4.64453">
        <ele>9.27</ele>
        <time>2014-11-19T13:03:30Z</time>
      </trkpt>
      <trkpt lat="43.81133" lon="4.64448">
        <ele>6.39</ele>
        <time>2014-11-19T13:04:00Z</time>
      </trkpt>
      <trkpt lat="43.81133" lon="4.64449">
        <ele>3.02</ele>
        <time>2014-11-19T13:04:20Z</time>
      </trkpt>
      <trkpt lat="43.81133" lon="4.64446">
        <ele>1.1</ele>
        <time>2014-11-19T13:04:46Z</time>
      </trkpt>
      <trkpt lat="43.81135" lon="4.64447">
        <ele>7.83</ele>
        <time>2014-11-19T13:05:19Z</time>
      </trkpt>
      <trkpt lat="43.81139" lon="4.64443">
        <ele>7.83</ele>
        <time>2014-11-19T13:05:54Z</time>
      </trkpt>
      <trkpt lat="43.81135" lon="4.64444">
        <ele>11.19</ele>
        <time>2014-11-19T13:06:23Z</time>
      </trkpt>
      <trkpt lat="43.81133" lon="4.64445">
        <ele>12.63</ele>
        <time>2014-11-19T13:06:41Z</time>
      </trkpt>
      <trkpt lat="43.81131" lon="4.64446">
        <ele>11.67</ele>
        <time>2014-11-19T13:07:13Z</time>
      </trkpt>
      <trkpt lat="43.8113" lon="4.64447">
        <ele>16.48</ele>
        <time>2014-11-19T13:07:41Z</time>
      </trkpt>
      <trkpt lat="43.81131" lon="4.64448">
        <ele>13.6</ele>
        <time>2014-11-19T13:08:05Z</time>
      </trkpt>
      <trkpt lat="43.81129" lon="4.64445">
        <ele>13.12</ele>
        <time>2014-11-19T13:08:28Z</time>
      </trkpt>
      <trkpt lat="43.8113" lon="4.64447">
        <ele>12.63</ele>
        <time>2014-11-19T13:08:51Z</time>
      </trkpt>
      <trkpt lat="43.81135" lon="4.64453">
        <ele>11.67</ele>
        <time>2014-11-19T13:09:18Z</time>
      </trkpt>
      <trkpt lat="43.81138" lon="4.64457">
        <ele>9.75</ele>
        <time>2014-11-19T13:09:44Z</time>
      </trkpt>
      <trkpt lat="43.81136" lon="4.64454">
        <ele>10.23</ele>
        <time>2014-11-19T13:10:09Z</time>
      </trkpt>
      <trkpt lat="43.81137" lon="4.64449">
        <ele>10.71</ele>
        <time>2014-11-19T13:10:22Z</time>
      </trkpt>
      <trkpt lat="43.8114" lon="4.64441">
        <ele>9.75</ele>
        <time>2014-11-19T13:10:45Z</time>
      </trkpt>
      <trkpt lat="43.81141" lon="4.6444">
        <ele>10.23</ele>
        <time>2014-11-19T13:10:47Z</time>
      </trkpt>
      <trkpt lat="43.81144" lon="4.64425">
        <ele>16.96</ele>
        <time>2014-11-19T13:11:01Z</time>
      </trkpt>
      <trkpt lat="43.81155" lon="4.64422">
        <ele>15.04</ele>
        <time>2014-11-19T13:11:15Z</time>
      </trkpt>
      <trkpt lat="43.81167" lon="4.64415">
        <ele>16.48</ele>
        <time>2014-11-19T13:11:28Z</time>
      </trkpt>
      <trkpt lat="43.81176" lon="4.64407">
        <ele>14.08</ele>
        <time>2014-11-19T13:11:41Z</time>
      </trkpt>
      <trkpt lat="43.81187" lon="4.644">
        <ele>11.19</ele>
        <time>2014-11-19T13:11:52Z</time>
      </trkpt>
      <trkpt lat="43.81204" lon="4.6439">
        <ele>8.79</ele>
        <time>2014-11-19T13:12:07Z</time>
      </trkpt>
      <trkpt lat="43.81208" lon="4.64387">
        <ele>8.31</ele>
        <time>2014-11-19T13:12:12Z</time>
      </trkpt>
      <trkpt lat="43.81221" lon="4.64374">
        <ele>6.87</ele>
        <time>2014-11-19T13:12:25Z</time>
      </trkpt>
      <trkpt lat="43.81223" lon="4.64371">
        <ele>6.39</ele>
        <time>2014-11-19T13:12:28Z</time>
      </trkpt>
      <trkpt lat="43.81236" lon="4.64356">
        <ele>5.91</ele>
        <time>2014-11-19T13:12:41Z</time>
      </trkpt>
      <trkpt lat="43.81245" lon="4.64348">
        <ele>5.91</ele>
        <time>2014-11-19T13:12:50Z</time>
      </trkpt>
      <trkpt lat="43.81251" lon="4.64343">
        <ele>7.35</ele>
        <time>2014-11-19T13:12:56Z</time>
      </trkpt>
      <trkpt lat="43.81261" lon="4.64334">
        <ele>9.27</ele>
        <time>2014-11-19T13:13:07Z</time>
      </trkpt>
      <trkpt lat="43.81268" lon="4.64331">
        <ele>8.79</ele>
        <time>2014-11-19T13:13:13Z</time>
      </trkpt>
      <trkpt lat="43.81274" lon="4.6432">
        <ele>7.35</ele>
        <time>2014-11-19T13:13:24Z</time>
      </trkpt>
      <trkpt lat="43.81273" lon="4.64307">
        <ele>6.87</ele>
        <time>2014-11-19T13:13:34Z</time>
      </trkpt>
      <trkpt lat="43.81263" lon="4.64292">
        <ele>8.79</ele>
        <time>2014-11-19T13:13:47Z</time>
      </trkpt>
      <trkpt lat="43.81254" lon="4.64278">
        <ele>12.15</ele>
        <time>2014-11-19T13:13:59Z</time>
      </trkpt>
      <trkpt lat="43.81248" lon="4.64271">
        <ele>13.6</ele>
        <time>2014-11-19T13:14:06Z</time>
      </trkpt>
      <trkpt lat="43.81243" lon="4.64262">
        <ele>14.08</ele>
        <time>2014-11-19T13:14:13Z</time>
      </trkpt>
      <trkpt lat="43.81234" lon="4.64247">
        <ele>13.6</ele>
        <time>2014-11-19T13:14:25Z</time>
      </trkpt>
      <trkpt lat="43.81232" lon="4.64242">
        <ele>14.08</ele>
        <time>2014-11-19T13:14:29Z</time>
      </trkpt>
      <trkpt lat="43.81225" lon="4.64226">
        <ele>14.56</ele>
        <time>2014-11-19T13:14:42Z</time>
      </trkpt>
      <trkpt lat="43.81218" lon="4.64212">
        <ele>15.52</ele>
        <time>2014-11-19T13:14:54Z</time>
      </trkpt>
      <trkpt lat="43.81215" lon="4.64207">
        <ele>16</ele>
        <time>2014-11-19T13:14:58Z</time>
      </trkpt>
      <trkpt lat="43.81212" lon="4.64201">
        <ele>15.04</ele>
        <time>2014-11-19T13:15:03Z</time>
      </trkpt>
      <trkpt lat="43.81203" lon="4.64184">
        <ele>14.08</ele>
        <time>2014-11-19T13:15:18Z</time>
      </trkpt>
      <trkpt lat="43.81191" lon="4.64172">
        <ele>15.52</ele>
        <time>2014-11-19T13:15:31Z</time>
      </trkpt>
      <trkpt lat="43.81187" lon="4.64169">
        <ele>16</ele>
        <time>2014-11-19T13:15:35Z</time>
      </trkpt>
      <trkpt lat="43.81178" lon="4.64158">
        <ele>16.96</ele>
        <time>2014-11-19T13:15:47Z</time>
      </trkpt>
      <trkpt lat="43.81173" lon="4.64153">
        <ele>16.48</ele>
        <time>2014-11-19T13:15:52Z</time>
      </trkpt>
      <trkpt lat="43.81163" lon="4.64142">
        <ele>16</ele>
        <time>2014-11-19T13:16:04Z</time>
      </trkpt>
      <trkpt lat="43.81154" lon="4.64131">
        <ele>13.6</ele>
        <time>2014-11-19T13:16:15Z</time>
      </trkpt>
      <trkpt lat="43.81144" lon="4.6412">
        <ele>11.67</ele>
        <time>2014-11-19T13:16:27Z</time>
      </trkpt>
      <trkpt lat="43.81132" lon="4.64106">
        <ele>14.56</ele>
        <time>2014-11-19T13:16:39Z</time>
      </trkpt>
      <trkpt lat="43.81122" lon="4.64093">
        <ele>18.4</ele>
        <time>2014-11-19T13:16:50Z</time>
      </trkpt>
      <trkpt lat="43.8111" lon="4.64078">
        <ele>22.25</ele>
        <time>2014-11-19T13:17:03Z</time>
      </trkpt>
      <trkpt lat="43.81102" lon="4.64067">
        <ele>25.13</ele>
        <time>2014-11-19T13:17:13Z</time>
      </trkpt>
      <trkpt lat="43.81091" lon="4.64052">
        <ele>27.53</ele>
        <time>2014-11-19T13:17:26Z</time>
      </trkpt>
      <trkpt lat="43.81081" lon="4.64038">
        <ele>25.13</ele>
        <time>2014-11-19T13:17:39Z</time>
      </trkpt>
      <trkpt lat="43.81077" lon="4.6403">
        <ele>24.17</ele>
        <time>2014-11-19T13:17:45Z</time>
      </trkpt>
      <trkpt lat="43.81081" lon="4.64022">
        <ele>22.73</ele>
        <time>2014-11-19T13:17:52Z</time>
      </trkpt>
      <trkpt lat="43.81091" lon="4.6402">
        <ele>20.81</ele>
        <time>2014-11-19T13:18:04Z</time>
      </trkpt>
      <trkpt lat="43.81093" lon="4.6402">
        <ele>20.81</ele>
        <time>2014-11-19T13:18:06Z</time>
      </trkpt>
      <trkpt lat="43.81096" lon="4.64024">
        <ele>21.29</ele>
        <time>2014-11-19T13:18:11Z</time>
      </trkpt>
      <trkpt lat="43.81098" lon="4.64029">
        <ele>21.77</ele>
        <time>2014-11-19T13:18:14Z</time>
      </trkpt>
      <trkpt lat="43.81101" lon="4.64032">
        <ele>21.77</ele>
        <time>2014-11-19T13:18:18Z</time>
      </trkpt>
      <trkpt lat="43.81107" lon="4.64042">
        <ele>23.21</ele>
        <time>2014-11-19T13:18:27Z</time>
      </trkpt>
      <trkpt lat="43.81117" lon="4.64045">
        <ele>20.32</ele>
        <time>2014-11-19T13:18:40Z</time>
      </trkpt>
      <trkpt lat="43.81118" lon="4.64032">
        <ele>22.25</ele>
        <time>2014-11-19T13:18:51Z</time>
      </trkpt>
      <trkpt lat="43.81122" lon="4.64019">
        <ele>22.73</ele>
        <time>2014-11-19T13:19:05Z</time>
      </trkpt>
      <trkpt lat="43.81128" lon="4.64006">
        <ele>27.05</ele>
        <time>2014-11-19T13:19:19Z</time>
      </trkpt>
      <trkpt lat="43.81133" lon="4.63997">
        <ele>31.38</ele>
        <time>2014-11-19T13:19:31Z</time>
      </trkpt>
      <trkpt lat="43.81131" lon="4.6398">
        <ele>36.19</ele>
        <time>2014-11-19T13:19:45Z</time>
      </trkpt>
      <trkpt lat="43.81132" lon="4.63967">
        <ele>35.71</ele>
        <time>2014-11-19T13:19:58Z</time>
      </trkpt>
      <trkpt lat="43.81133" lon="4.63964">
        <ele>35.71</ele>
        <time>2014-11-19T13:20:00Z</time>
      </trkpt>
      <trkpt lat="43.81138" lon="4.63951">
        <ele>35.71</ele>
        <time>2014-11-19T13:20:14Z</time>
      </trkpt>
      <trkpt lat="43.8115" lon="4.63944">
        <ele>36.19</ele>
        <time>2014-11-19T13:20:28Z</time>
      </trkpt>
      <trkpt lat="43.81154" lon="4.63942">
        <ele>37.15</ele>
        <time>2014-11-19T13:20:32Z</time>
      </trkpt>
      <trkpt lat="43.8117" lon="4.63938">
        <ele>41.95</ele>
        <time>2014-11-19T13:20:45Z</time>
      </trkpt>
      <trkpt lat="43.81181" lon="4.63936">
        <ele>42.92</ele>
        <time>2014-11-19T13:20:59Z</time>
      </trkpt>
      <trkpt lat="43.81189" lon="4.63931">
        <ele>43.88</ele>
        <time>2014-11-19T13:21:11Z</time>
      </trkpt>
      <trkpt lat="43.81199" lon="4.63922">
        <ele>45.8</ele>
        <time>2014-11-19T13:21:23Z</time>
      </trkpt>
      <trkpt lat="43.81205" lon="4.63915">
        <ele>47.72</ele>
        <time>2014-11-19T13:21:36Z</time>
      </trkpt>
      <trkpt lat="43.81213" lon="4.63907">
        <ele>49.65</ele>
        <time>2014-11-19T13:21:48Z</time>
      </trkpt>
      <trkpt lat="43.81216" lon="4.63904">
        <ele>51.57</ele>
        <time>2014-11-19T13:22:01Z</time>
      </trkpt>
      <trkpt lat="43.81217" lon="4.63889">
        <ele>49.65</ele>
        <time>2014-11-19T13:22:13Z</time>
      </trkpt>
      <trkpt lat="43.81219" lon="4.63882">
        <ele>47.24</ele>
        <time>2014-11-19T13:22:27Z</time>
      </trkpt>
      <trkpt lat="43.81223" lon="4.63882">
        <ele>45.8</ele>
        <time>2014-11-19T13:23:03Z</time>
      </trkpt>
      <trkpt lat="43.81221" lon="4.63872">
        <ele>47.72</ele>
        <time>2014-11-19T13:23:45Z</time>
      </trkpt>
      <trkpt lat="43.81222" lon="4.6389">
        <ele>48.2</ele>
        <time>2014-11-19T13:24:01Z</time>
      </trkpt>
      <trkpt lat="43.81221" lon="4.63892">
        <ele>47.24</ele>
        <time>2014-11-19T13:24:16Z</time>
      </trkpt>
      <trkpt lat="43.81223" lon="4.63882">
        <ele>50.61</ele>
        <time>2014-11-19T13:24:35Z</time>
      </trkpt>
      <trkpt lat="43.81227" lon="4.63875">
        <ele>49.16</ele>
        <time>2014-11-19T13:24:47Z</time>
      </trkpt>
      <trkpt lat="43.81227" lon="4.63867">
        <ele>49.65</ele>
        <time>2014-11-19T13:24:53Z</time>
      </trkpt>
      <trkpt lat="43.81236" lon="4.63862">
        <ele>52.05</ele>
        <time>2014-11-19T13:25:06Z</time>
      </trkpt>
      <trkpt lat="43.81245" lon="4.63862">
        <ele>53.01</ele>
        <time>2014-11-19T13:25:19Z</time>
      </trkpt>
      <trkpt lat="43.81253" lon="4.63862">
        <ele>52.05</ele>
        <time>2014-11-19T13:25:31Z</time>
      </trkpt>
      <trkpt lat="43.81262" lon="4.6386">
        <ele>54.93</ele>
        <time>2014-11-19T13:25:46Z</time>
      </trkpt>
      <trkpt lat="43.81274" lon="4.63862">
        <ele>54.93</ele>
        <time>2014-11-19T13:26:02Z</time>
      </trkpt>
      <trkpt lat="43.81278" lon="4.63861">
        <ele>58.3</ele>
        <time>2014-11-19T13:26:15Z</time>
      </trkpt>
      <trkpt lat="43.8128" lon="4.63852">
        <ele>60.7</ele>
        <time>2014-11-19T13:26:27Z</time>
      </trkpt>
      <trkpt lat="43.81281" lon="4.63847">
        <ele>60.7</ele>
        <time>2014-11-19T13:26:32Z</time>
      </trkpt>
      <trkpt lat="43.81286" lon="4.63837">
        <ele>59.74</ele>
        <time>2014-11-19T13:26:41Z</time>
      </trkpt>
      <trkpt lat="43.81291" lon="4.6383">
        <ele>58.3</ele>
        <time>2014-11-19T13:26:48Z</time>
      </trkpt>
      <trkpt lat="43.81295" lon="4.63816">
        <ele>56.86</ele>
        <time>2014-11-19T13:26:58Z</time>
      </trkpt>
      <trkpt lat="43.81301" lon="4.638">
        <ele>58.3</ele>
        <time>2014-11-19T13:27:10Z</time>
      </trkpt>
      <trkpt lat="43.81302" lon="4.63796">
        <ele>59.26</ele>
        <time>2014-11-19T13:27:13Z</time>
      </trkpt>
      <trkpt lat="43.81312" lon="4.63783">
        <ele>59.74</ele>
        <time>2014-11-19T13:27:27Z</time>
      </trkpt>
      <trkpt lat="43.81323" lon="4.63774">
        <ele>59.74</ele>
        <time>2014-11-19T13:27:40Z</time>
      </trkpt>
      <trkpt lat="43.81334" lon="4.63767">
        <ele>59.26</ele>
        <time>2014-11-19T13:27:52Z</time>
      </trkpt>
      <trkpt lat="43.81347" lon="4.63758">
        <ele>58.78</ele>
        <time>2014-11-19T13:28:04Z</time>
      </trkpt>
      <trkpt lat="43.81358" lon="4.63744">
        <ele>58.78</ele>
        <time>2014-11-19T13:28:16Z</time>
      </trkpt>
      <trkpt lat="43.8137" lon="4.63733">
        <ele>58.3</ele>
        <time>2014-11-19T13:28:28Z</time>
      </trkpt>
      <trkpt lat="43.81385" lon="4.63728">
        <ele>57.82</ele>
        <time>2014-11-19T13:28:40Z</time>
      </trkpt>
      <trkpt lat="43.81392" lon="4.63728">
        <ele>58.3</ele>
        <time>2014-11-19T13:28:48Z</time>
      </trkpt>
      <trkpt lat="43.81404" lon="4.63731">
        <ele>58.3</ele>
        <time>2014-11-19T13:28:58Z</time>
      </trkpt>
      <trkpt lat="43.81419" lon="4.63733">
        <ele>56.37</ele>
        <time>2014-11-19T13:29:11Z</time>
      </trkpt>
      <trkpt lat="43.81432" lon="4.63734">
        <ele>55.41</ele>
        <time>2014-11-19T13:29:24Z</time>
      </trkpt>
      <trkpt lat="43.81444" lon="4.63734">
        <ele>54.93</ele>
        <time>2014-11-19T13:29:36Z</time>
      </trkpt>
      <trkpt lat="43.81456" lon="4.63734">
        <ele>55.89</ele>
        <time>2014-11-19T13:29:49Z</time>
      </trkpt>
      <trkpt lat="43.81465" lon="4.63728">
        <ele>55.89</ele>
        <time>2014-11-19T13:29:56Z</time>
      </trkpt>
      <trkpt lat="43.8147" lon="4.63713">
        <ele>58.78</ele>
        <time>2014-11-19T13:30:10Z</time>
      </trkpt>
      <trkpt lat="43.8147" lon="4.63712">
        <ele>58.78</ele>
        <time>2014-11-19T13:30:11Z</time>
      </trkpt>
      <trkpt lat="43.81465" lon="4.63696">
        <ele>65.03</ele>
        <time>2014-11-19T13:30:24Z</time>
      </trkpt>
      <trkpt lat="43.81459" lon="4.63681">
        <ele>69.83</ele>
        <time>2014-11-19T13:30:36Z</time>
      </trkpt>
      <trkpt lat="43.81459" lon="4.63678">
        <ele>69.83</ele>
        <time>2014-11-19T13:30:38Z</time>
      </trkpt>
      <trkpt lat="43.81465" lon="4.63665">
        <ele>69.83</ele>
        <time>2014-11-19T13:30:47Z</time>
      </trkpt>
      <trkpt lat="43.81471" lon="4.63657">
        <ele>70.31</ele>
        <time>2014-11-19T13:30:55Z</time>
      </trkpt>
      <trkpt lat="43.81478" lon="4.63653">
        <ele>69.83</ele>
        <time>2014-11-19T13:31:02Z</time>
      </trkpt>
      <trkpt lat="43.81489" lon="4.63649">
        <ele>69.35</ele>
        <time>2014-11-19T13:31:14Z</time>
      </trkpt>
      <trkpt lat="43.815" lon="4.63644">
        <ele>68.87</ele>
        <time>2014-11-19T13:31:25Z</time>
      </trkpt>
      <trkpt lat="43.81512" lon="4.63638">
        <ele>68.87</ele>
        <time>2014-11-19T13:31:36Z</time>
      </trkpt>
      <trkpt lat="43.81525" lon="4.63634">
        <ele>67.43</ele>
        <time>2014-11-19T13:31:48Z</time>
      </trkpt>
      <trkpt lat="43.81536" lon="4.63626">
        <ele>65.03</ele>
        <time>2014-11-19T13:32:00Z</time>
      </trkpt>
      <trkpt lat="43.81537" lon="4.63626">
        <ele>64.55</ele>
        <time>2014-11-19T13:32:01Z</time>
      </trkpt>
      <trkpt lat="43.8154" lon="4.63614">
        <ele>63.58</ele>
        <time>2014-11-19T13:32:09Z</time>
      </trkpt>
      <trkpt lat="43.8154" lon="4.6361">
        <ele>63.58</ele>
        <time>2014-11-19T13:32:12Z</time>
      </trkpt>
      <trkpt lat="43.8153" lon="4.63596">
        <ele>65.99</ele>
        <time>2014-11-19T13:32:26Z</time>
      </trkpt>
      <trkpt lat="43.81525" lon="4.6359">
        <ele>66.47</ele>
        <time>2014-11-19T13:32:31Z</time>
      </trkpt>
      <trkpt lat="43.81522" lon="4.63572">
        <ele>67.43</ele>
        <time>2014-11-19T13:32:44Z</time>
      </trkpt>
      <trkpt lat="43.81534" lon="4.63558">
        <ele>67.43</ele>
        <time>2014-11-19T13:32:57Z</time>
      </trkpt>
      <trkpt lat="43.81547" lon="4.63549">
        <ele>64.55</ele>
        <time>2014-11-19T13:33:10Z</time>
      </trkpt>
      <trkpt lat="43.81555" lon="4.63539">
        <ele>62.62</ele>
        <time>2014-11-19T13:33:19Z</time>
      </trkpt>
      <trkpt lat="43.81555" lon="4.63519">
        <ele>63.1</ele>
        <time>2014-11-19T13:33:32Z</time>
      </trkpt>
      <trkpt lat="43.81556" lon="4.63508">
        <ele>60.7</ele>
        <time>2014-11-19T13:33:40Z</time>
      </trkpt>
      <trkpt lat="43.8156" lon="4.63489">
        <ele>56.86</ele>
        <time>2014-11-19T13:33:53Z</time>
      </trkpt>
      <trkpt lat="43.81564" lon="4.63472">
        <ele>54.93</ele>
        <time>2014-11-19T13:34:06Z</time>
      </trkpt>
      <trkpt lat="43.81566" lon="4.63451">
        <ele>53.49</ele>
        <time>2014-11-19T13:34:19Z</time>
      </trkpt>
      <trkpt lat="43.81566" lon="4.63429">
        <ele>53.49</ele>
        <time>2014-11-19T13:34:32Z</time>
      </trkpt>
      <trkpt lat="43.8156" lon="4.63405">
        <ele>55.41</ele>
        <time>2014-11-19T13:34:44Z</time>
      </trkpt>
      <trkpt lat="43.81557" lon="4.63399">
        <ele>56.86</ele>
        <time>2014-11-19T13:34:48Z</time>
      </trkpt>
      <trkpt lat="43.81556" lon="4.63391">
        <ele>56.37</ele>
        <time>2014-11-19T13:34:53Z</time>
      </trkpt>
      <trkpt lat="43.81557" lon="4.63372">
        <ele>54.45</ele>
        <time>2014-11-19T13:35:07Z</time>
      </trkpt>
      <trkpt lat="43.81563" lon="4.63355">
        <ele>53.01</ele>
        <time>2014-11-19T13:35:19Z</time>
      </trkpt>
      <trkpt lat="43.81567" lon="4.63347">
        <ele>50.61</ele>
        <time>2014-11-19T13:35:28Z</time>
      </trkpt>
      <trkpt lat="43.81576" lon="4.63339">
        <ele>49.16</ele>
        <time>2014-11-19T13:35:40Z</time>
      </trkpt>
      <trkpt lat="43.8159" lon="4.63335">
        <ele>47.72</ele>
        <time>2014-11-19T13:35:55Z</time>
      </trkpt>
      <trkpt lat="43.81594" lon="4.63336">
        <ele>48.2</ele>
        <time>2014-11-19T13:35:59Z</time>
      </trkpt>
      <trkpt lat="43.81604" lon="4.63341">
        <ele>51.57</ele>
        <time>2014-11-19T13:36:10Z</time>
      </trkpt>
      <trkpt lat="43.81605" lon="4.63341">
        <ele>52.05</ele>
        <time>2014-11-19T13:36:11Z</time>
      </trkpt>
      <trkpt lat="43.81608" lon="4.63345">
        <ele>52.53</ele>
        <time>2014-11-19T13:36:15Z</time>
      </trkpt>
      <trkpt lat="43.81614" lon="4.63355">
        <ele>57.82</ele>
        <time>2014-11-19T13:36:31Z</time>
      </trkpt>
      <trkpt lat="43.81614" lon="4.63359">
        <ele>60.7</ele>
        <time>2014-11-19T13:37:01Z</time>
      </trkpt>
      <trkpt lat="43.81615" lon="4.63359">
        <ele>60.7</ele>
        <time>2014-11-19T13:37:04Z</time>
      </trkpt>
      <trkpt lat="43.81622" lon="4.63358">
        <ele>60.7</ele>
        <time>2014-11-19T13:37:11Z</time>
      </trkpt>
      <trkpt lat="43.81625" lon="4.63357">
        <ele>60.22</ele>
        <time>2014-11-19T13:37:15Z</time>
      </trkpt>
      <trkpt lat="43.81631" lon="4.63356">
        <ele>60.22</ele>
        <time>2014-11-19T13:37:21Z</time>
      </trkpt>
      <trkpt lat="43.81635" lon="4.63353">
        <ele>58.78</ele>
        <time>2014-11-19T13:37:25Z</time>
      </trkpt>
      <trkpt lat="43.81642" lon="4.63353">
        <ele>56.37</ele>
        <time>2014-11-19T13:37:36Z</time>
      </trkpt>
      <trkpt lat="43.81649" lon="4.6335">
        <ele>56.37</ele>
        <time>2014-11-19T13:37:50Z</time>
      </trkpt>
      <trkpt lat="43.81652" lon="4.63347">
        <ele>55.41</ele>
        <time>2014-11-19T13:38:08Z</time>
      </trkpt>
      <trkpt lat="43.81654" lon="4.6335">
        <ele>55.41</ele>
        <time>2014-11-19T13:38:35Z</time>
      </trkpt>
      <trkpt lat="43.8165" lon="4.63347">
        <ele>52.53</ele>
        <time>2014-11-19T13:39:00Z</time>
      </trkpt>
      <trkpt lat="43.8165" lon="4.63343">
        <ele>53.01</ele>
        <time>2014-11-19T13:39:23Z</time>
      </trkpt>
      <trkpt lat="43.81648" lon="4.63343">
        <ele>53.01</ele>
        <time>2014-11-19T13:39:53Z</time>
      </trkpt>
      <trkpt lat="43.81648" lon="4.63347">
        <ele>53.97</ele>
        <time>2014-11-19T13:40:08Z</time>
      </trkpt>
      <trkpt lat="43.81645" lon="4.6335">
        <ele>53.97</ele>
        <time>2014-11-19T13:40:19Z</time>
      </trkpt>
      <trkpt lat="43.81642" lon="4.63348">
        <ele>53.01</ele>
        <time>2014-11-19T13:40:31Z</time>
      </trkpt>
      <trkpt lat="43.81639" lon="4.63347">
        <ele>52.05</ele>
        <time>2014-11-19T13:40:40Z</time>
      </trkpt>
      <trkpt lat="43.81632" lon="4.63345">
        <ele>54.45</ele>
        <time>2014-11-19T13:40:51Z</time>
      </trkpt>
      <trkpt lat="43.81624" lon="4.63342">
        <ele>55.41</ele>
        <time>2014-11-19T13:41:02Z</time>
      </trkpt>
      <trkpt lat="43.8162" lon="4.63341">
        <ele>54.93</ele>
        <time>2014-11-19T13:41:15Z</time>
      </trkpt>
      <trkpt lat="43.81616" lon="4.63336">
        <ele>52.05</ele>
        <time>2014-11-19T13:41:29Z</time>
      </trkpt>
      <trkpt lat="43.81618" lon="4.63329">
        <ele>50.61</ele>
        <time>2014-11-19T13:41:41Z</time>
      </trkpt>
      <trkpt lat="43.81619" lon="4.63327">
        <ele>49.65</ele>
        <time>2014-11-19T13:41:59Z</time>
      </trkpt>
      <trkpt lat="43.8162" lon="4.6332">
        <ele>50.13</ele>
        <time>2014-11-19T13:42:21Z</time>
      </trkpt>
      <trkpt lat="43.81623" lon="4.63319">
        <ele>47.72</ele>
        <time>2014-11-19T13:42:41Z</time>
      </trkpt>
      <trkpt lat="43.81627" lon="4.63316">
        <ele>46.76</ele>
        <time>2014-11-19T13:43:02Z</time>
      </trkpt>
      <trkpt lat="43.81629" lon="4.63318">
        <ele>46.28</ele>
        <time>2014-11-19T13:43:23Z</time>
      </trkpt>
      <trkpt lat="43.8163" lon="4.63314">
        <ele>45.8</ele>
        <time>2014-11-19T13:43:44Z</time>
      </trkpt>
      <trkpt lat="43.8163" lon="4.63312">
        <ele>46.28</ele>
        <time>2014-11-19T13:44:09Z</time>
      </trkpt>
      <trkpt lat="43.81633" lon="4.63312">
        <ele>46.28</ele>
        <time>2014-11-19T13:44:27Z</time>
      </trkpt>
      <trkpt lat="43.81636" lon="4.63312">
        <ele>44.84</ele>
        <time>2014-11-19T13:44:45Z</time>
      </trkpt>
      <trkpt lat="43.81637" lon="4.63308">
        <ele>45.8</ele>
        <time>2014-11-19T13:44:59Z</time>
      </trkpt>
      <trkpt lat="43.81637" lon="4.63308">
        <ele>45.8</ele>
        <time>2014-11-19T13:45:00Z</time>
      </trkpt>
      <trkpt lat="43.81643" lon="4.63306">
        <ele>43.88</ele>
        <time>2014-11-19T13:45:07Z</time>
      </trkpt>
      <trkpt lat="43.81648" lon="4.63296">
        <ele>40.99</ele>
        <time>2014-11-19T13:45:19Z</time>
      </trkpt>
      <trkpt lat="43.8165" lon="4.6328">
        <ele>40.51</ele>
        <time>2014-11-19T13:45:33Z</time>
      </trkpt>
      <trkpt lat="43.81648" lon="4.63268">
        <ele>44.36</ele>
        <time>2014-11-19T13:45:46Z</time>
      </trkpt>
      <trkpt lat="43.81653" lon="4.63259">
        <ele>42.44</ele>
        <time>2014-11-19T13:46:00Z</time>
      </trkpt>
      <trkpt lat="43.81662" lon="4.63261">
        <ele>40.51</ele>
        <time>2014-11-19T13:46:17Z</time>
      </trkpt>
      <trkpt lat="43.81672" lon="4.63265">
        <ele>42.92</ele>
        <time>2014-11-19T13:46:33Z</time>
      </trkpt>
      <trkpt lat="43.8168" lon="4.63269">
        <ele>43.88</ele>
        <time>2014-11-19T13:46:48Z</time>
      </trkpt>
      <trkpt lat="43.81684" lon="4.63273">
        <ele>44.36</ele>
        <time>2014-11-19T13:47:03Z</time>
      </trkpt>
      <trkpt lat="43.81687" lon="4.63274">
        <ele>45.32</ele>
        <time>2014-11-19T13:47:12Z</time>
      </trkpt>
      <trkpt lat="43.81696" lon="4.6328">
        <ele>44.36</ele>
        <time>2014-11-19T13:47:24Z</time>
      </trkpt>
      <trkpt lat="43.81703" lon="4.63286">
        <ele>42.92</ele>
        <time>2014-11-19T13:47:41Z</time>
      </trkpt>
      <trkpt lat="43.81708" lon="4.63288">
        <ele>42.44</ele>
        <time>2014-11-19T13:47:55Z</time>
      </trkpt>
      <trkpt lat="43.81713" lon="4.63291">
        <ele>43.88</ele>
        <time>2014-11-19T13:48:11Z</time>
      </trkpt>
      <trkpt lat="43.81717" lon="4.63294">
        <ele>44.36</ele>
        <time>2014-11-19T13:48:28Z</time>
      </trkpt>
      <trkpt lat="43.81716" lon="4.63287">
        <ele>42.92</ele>
        <time>2014-11-19T13:48:42Z</time>
      </trkpt>
      <trkpt lat="43.81717" lon="4.63281">
        <ele>42.44</ele>
        <time>2014-11-19T13:48:58Z</time>
      </trkpt>
      <trkpt lat="43.81722" lon="4.63276">
        <ele>40.99</ele>
        <time>2014-11-19T13:49:13Z</time>
      </trkpt>
      <trkpt lat="43.81722" lon="4.63264">
        <ele>38.59</ele>
        <time>2014-11-19T13:49:27Z</time>
      </trkpt>
      <trkpt lat="43.81722" lon="4.63252">
        <ele>36.19</ele>
        <time>2014-11-19T13:49:39Z</time>
      </trkpt>
      <trkpt lat="43.81731" lon="4.63245">
        <ele>31.38</ele>
        <time>2014-11-19T13:49:54Z</time>
      </trkpt>
      <trkpt lat="43.81735" lon="4.63244">
        <ele>30.9</ele>
        <time>2014-11-19T13:50:07Z</time>
      </trkpt>
      <trkpt lat="43.81737" lon="4.63244">
        <ele>31.38</ele>
        <time>2014-11-19T13:50:27Z</time>
      </trkpt>
      <trkpt lat="43.81742" lon="4.63247">
        <ele>31.38</ele>
        <time>2014-11-19T13:50:41Z</time>
      </trkpt>
      <trkpt lat="43.81739" lon="4.63247">
        <ele>33.78</ele>
        <time>2014-11-19T13:50:58Z</time>
      </trkpt>
      <trkpt lat="43.81735" lon="4.63247">
        <ele>33.78</ele>
        <time>2014-11-19T13:51:13Z</time>
      </trkpt>
      <trkpt lat="43.81737" lon="4.63245">
        <ele>34.26</ele>
        <time>2014-11-19T13:51:41Z</time>
      </trkpt>
      <trkpt lat="43.81744" lon="4.63248">
        <ele>34.74</ele>
        <time>2014-11-19T13:52:02Z</time>
      </trkpt>
      <trkpt lat="43.81753" lon="4.63258">
        <ele>33.3</ele>
        <time>2014-11-19T13:52:16Z</time>
      </trkpt>
      <trkpt lat="43.81759" lon="4.63266">
        <ele>32.34</ele>
        <time>2014-11-19T13:52:30Z</time>
      </trkpt>
      <trkpt lat="43.81768" lon="4.63275">
        <ele>29.94</ele>
        <time>2014-11-19T13:52:44Z</time>
      </trkpt>
      <trkpt lat="43.81777" lon="4.63287">
        <ele>27.05</ele>
        <time>2014-11-19T13:52:58Z</time>
      </trkpt>
      <trkpt lat="43.81787" lon="4.63297">
        <ele>25.13</ele>
        <time>2014-11-19T13:53:13Z</time>
      </trkpt>
      <trkpt lat="43.81798" lon="4.63308">
        <ele>21.29</ele>
        <time>2014-11-19T13:53:28Z</time>
      </trkpt>
      <trkpt lat="43.81805" lon="4.63315">
        <ele>19.36</ele>
        <time>2014-11-19T13:53:38Z</time>
      </trkpt>
      <trkpt lat="43.81815" lon="4.63332">
        <ele>18.88</ele>
        <time>2014-11-19T13:53:52Z</time>
      </trkpt>
      <trkpt lat="43.81824" lon="4.63349">
        <ele>15.04</ele>
        <time>2014-11-19T13:54:06Z</time>
      </trkpt>
      <trkpt lat="43.8182" lon="4.63366">
        <ele>11.19</ele>
        <time>2014-11-19T13:54:17Z</time>
      </trkpt>
      <trkpt lat="43.81819" lon="4.63367">
        <ele>10.23</ele>
        <time>2014-11-19T13:54:19Z</time>
      </trkpt>
      <trkpt lat="43.81811" lon="4.63374">
        <ele>8.79</ele>
        <time>2014-11-19T13:54:26Z</time>
      </trkpt>
      <trkpt lat="43.81802" lon="4.63393">
        <ele>9.27</ele>
        <time>2014-11-19T13:54:38Z</time>
      </trkpt>
      <trkpt lat="43.81799" lon="4.63413">
        <ele>8.31</ele>
        <time>2014-11-19T13:54:51Z</time>
      </trkpt>
      <trkpt lat="43.818" lon="4.63416">
        <ele>7.83</ele>
        <time>2014-11-19T13:54:54Z</time>
      </trkpt>
      <trkpt lat="43.81805" lon="4.6342">
        <ele>5.91</ele>
        <time>2014-11-19T13:55:01Z</time>
      </trkpt>
      <trkpt lat="43.81811" lon="4.63422">
        <ele>5.42</ele>
        <time>2014-11-19T13:55:05Z</time>
      </trkpt>
      <trkpt lat="43.81827" lon="4.6343">
        <ele>5.91</ele>
        <time>2014-11-19T13:55:20Z</time>
      </trkpt>
      <trkpt lat="43.81841" lon="4.63435">
        <ele>4.94</ele>
        <time>2014-11-19T13:55:33Z</time>
      </trkpt>
      <trkpt lat="43.81856" lon="4.63441">
        <ele>3.02</ele>
        <time>2014-11-19T13:55:46Z</time>
      </trkpt>
      <trkpt lat="43.81873" lon="4.63448">
        <ele>3.98</ele>
        <time>2014-11-19T13:56:00Z</time>
      </trkpt>
      <trkpt lat="43.81882" lon="4.6345">
        <ele>3.5</ele>
        <time>2014-11-19T13:56:08Z</time>
      </trkpt>
      <trkpt lat="43.81886" lon="4.6345">
        <ele>3.98</ele>
        <time>2014-11-19T13:56:12Z</time>
      </trkpt>
      <trkpt lat="43.81889" lon="4.63442">
        <ele>3.02</ele>
        <time>2014-11-19T13:56:18Z</time>
      </trkpt>
      <trkpt lat="43.81891" lon="4.63435">
        <ele>2.06</ele>
        <time>2014-11-19T13:56:23Z</time>
      </trkpt>
      <trkpt lat="43.81894" lon="4.63429">
        <ele>1.58</ele>
        <time>2014-11-19T13:56:28Z</time>
      </trkpt>
      <trkpt lat="43.81901" lon="4.63408">
        <ele>2.06</ele>
        <time>2014-11-19T13:56:42Z</time>
      </trkpt>
      <trkpt lat="43.81901" lon="4.63407">
        <ele>2.06</ele>
        <time>2014-11-19T13:56:43Z</time>
      </trkpt>
      <trkpt lat="43.81904" lon="4.63399">
        <ele>1.58</ele>
        <time>2014-11-19T13:56:49Z</time>
      </trkpt>
      <trkpt lat="43.81912" lon="4.63378">
        <ele>3.02</ele>
        <time>2014-11-19T13:57:05Z</time>
      </trkpt>
      <trkpt lat="43.81918" lon="4.63361">
        <ele>3.02</ele>
        <time>2014-11-19T13:57:17Z</time>
      </trkpt>
      <trkpt lat="43.81921" lon="4.63353">
        <ele>3.02</ele>
        <time>2014-11-19T13:57:23Z</time>
      </trkpt>
      <trkpt lat="43.81926" lon="4.63333">
        <ele>4.46</ele>
        <time>2014-11-19T13:57:37Z</time>
      </trkpt>
      <trkpt lat="43.81927" lon="4.63329">
        <ele>4.46</ele>
        <time>2014-11-19T13:57:40Z</time>
      </trkpt>
      <trkpt lat="43.81934" lon="4.6331">
        <ele>3.5</ele>
        <time>2014-11-19T13:57:54Z</time>
      </trkpt>
      <trkpt lat="43.81936" lon="4.63303">
        <ele>3.02</ele>
        <time>2014-11-19T13:57:59Z</time>
      </trkpt>
      <trkpt lat="43.81938" lon="4.63301">
        <ele>2.54</ele>
        <time>2014-11-19T13:58:01Z</time>
      </trkpt>
      <trkpt lat="43.8194" lon="4.63294">
        <ele>2.54</ele>
        <time>2014-11-19T13:58:06Z</time>
      </trkpt>
      <trkpt lat="43.81941" lon="4.63286">
        <ele>2.06</ele>
        <time>2014-11-19T13:58:12Z</time>
      </trkpt>
      <trkpt lat="43.81946" lon="4.63268">
        <ele>2.06</ele>
        <time>2014-11-19T13:58:24Z</time>
      </trkpt>
      <trkpt lat="43.8195" lon="4.63249">
        <ele>2.54</ele>
        <time>2014-11-19T13:58:36Z</time>
      </trkpt>
      <trkpt lat="43.81954" lon="4.63234">
        <ele>3.02</ele>
        <time>2014-11-19T13:58:46Z</time>
      </trkpt>
      <trkpt lat="43.81957" lon="4.63224">
        <ele>3.98</ele>
        <time>2014-11-19T13:58:52Z</time>
      </trkpt>
      <trkpt lat="43.81962" lon="4.63209">
        <ele>4.46</ele>
        <time>2014-11-19T13:59:04Z</time>
      </trkpt>
      <trkpt lat="43.81967" lon="4.63191">
        <ele>5.42</ele>
        <time>2014-11-19T13:59:17Z</time>
      </trkpt>
      <trkpt lat="43.81971" lon="4.63173">
        <ele>4.94</ele>
        <time>2014-11-19T13:59:29Z</time>
      </trkpt>
      <trkpt lat="43.81972" lon="4.63169">
        <ele>4.94</ele>
        <time>2014-11-19T13:59:32Z</time>
      </trkpt>
      <trkpt lat="43.81974" lon="4.63158">
        <ele>4.46</ele>
        <time>2014-11-19T13:59:38Z</time>
      </trkpt>
      <trkpt lat="43.81977" lon="4.63148">
        <ele>3.98</ele>
        <time>2014-11-19T13:59:45Z</time>
      </trkpt>
      <trkpt lat="43.81982" lon="4.63139">
        <ele>2.06</ele>
        <time>2014-11-19T13:59:53Z</time>
      </trkpt>
      <trkpt lat="43.81987" lon="4.6312">
        <ele>3.02</ele>
        <time>2014-11-19T14:00:06Z</time>
      </trkpt>
      <trkpt lat="43.81988" lon="4.63112">
        <ele>3.5</ele>
        <time>2014-11-19T14:00:12Z</time>
      </trkpt>
      <trkpt lat="43.81994" lon="4.63092">
        <ele>3.98</ele>
        <time>2014-11-19T14:00:25Z</time>
      </trkpt>
      <trkpt lat="43.81998" lon="4.63073">
        <ele>3.98</ele>
        <time>2014-11-19T14:00:38Z</time>
      </trkpt>
      <trkpt lat="43.82" lon="4.63062">
        <ele>3.98</ele>
        <time>2014-11-19T14:00:45Z</time>
      </trkpt>
      <trkpt lat="43.82003" lon="4.63053">
        <ele>3.5</ele>
        <time>2014-11-19T14:00:52Z</time>
      </trkpt>
      <trkpt lat="43.82009" lon="4.63035">
        <ele>3.02</ele>
        <time>2014-11-19T14:01:04Z</time>
      </trkpt>
      <trkpt lat="43.82012" lon="4.63024">
        <ele>3.02</ele>
        <time>2014-11-19T14:01:11Z</time>
      </trkpt>
      <trkpt lat="43.82018" lon="4.63012">
        <ele>2.06</ele>
        <time>2014-11-19T14:01:20Z</time>
      </trkpt>
      <trkpt lat="43.82026" lon="4.62993">
        <ele>2.06</ele>
        <time>2014-11-19T14:01:34Z</time>
      </trkpt>
      <trkpt lat="43.82027" lon="4.62988">
        <ele>2.06</ele>
        <time>2014-11-19T14:01:38Z</time>
      </trkpt>
      <trkpt lat="43.82032" lon="4.62967">
        <ele>3.02</ele>
        <time>2014-11-19T14:01:51Z</time>
      </trkpt>
      <trkpt lat="43.82036" lon="4.62952">
        <ele>3.98</ele>
        <time>2014-11-19T14:02:02Z</time>
      </trkpt>
      <trkpt lat="43.82041" lon="4.62939">
        <ele>3.5</ele>
        <time>2014-11-19T14:02:13Z</time>
      </trkpt>
      <trkpt lat="43.82044" lon="4.62932">
        <ele>4.94</ele>
        <time>2014-11-19T14:02:18Z</time>
      </trkpt>
      <trkpt lat="43.82046" lon="4.62923">
        <ele>4.94</ele>
        <time>2014-11-19T14:02:24Z</time>
      </trkpt>
      <trkpt lat="43.82045" lon="4.62912">
        <ele>5.91</ele>
        <time>2014-11-19T14:02:32Z</time>
      </trkpt>
      <trkpt lat="43.82037" lon="4.62894">
        <ele>6.39</ele>
        <time>2014-11-19T14:02:45Z</time>
      </trkpt>
      <trkpt lat="43.82036" lon="4.62888">
        <ele>7.35</ele>
        <time>2014-11-19T14:02:49Z</time>
      </trkpt>
      <trkpt lat="43.82035" lon="4.62876">
        <ele>7.35</ele>
        <time>2014-11-19T14:02:57Z</time>
      </trkpt>
      <trkpt lat="43.82042" lon="4.62855">
        <ele>4.46</ele>
        <time>2014-11-19T14:03:11Z</time>
      </trkpt>
      <trkpt lat="43.82047" lon="4.62845">
        <ele>4.46</ele>
        <time>2014-11-19T14:03:19Z</time>
      </trkpt>
      <trkpt lat="43.82046" lon="4.62838">
        <ele>4.94</ele>
        <time>2014-11-19T14:03:24Z</time>
      </trkpt>
      <trkpt lat="43.82037" lon="4.62828">
        <ele>5.91</ele>
        <time>2014-11-19T14:03:36Z</time>
      </trkpt>
      <trkpt lat="43.82033" lon="4.62825">
        <ele>7.35</ele>
        <time>2014-11-19T14:03:39Z</time>
      </trkpt>
      <trkpt lat="43.82019" lon="4.62824">
        <ele>14.08</ele>
        <time>2014-11-19T14:03:51Z</time>
      </trkpt>
      <trkpt lat="43.82012" lon="4.62824">
        <ele>16.48</ele>
        <time>2014-11-19T14:03:58Z</time>
      </trkpt>
      <trkpt lat="43.82" lon="4.62823">
        <ele>18.88</ele>
        <time>2014-11-19T14:04:09Z</time>
      </trkpt>
      <trkpt lat="43.8199" lon="4.62825">
        <ele>18.88</ele>
        <time>2014-11-19T14:04:19Z</time>
      </trkpt>
      <trkpt lat="43.81986" lon="4.62827">
        <ele>20.81</ele>
        <time>2014-11-19T14:04:23Z</time>
      </trkpt>
      <trkpt lat="43.81974" lon="4.6283">
        <ele>22.25</ele>
        <time>2014-11-19T14:04:35Z</time>
      </trkpt>
      <trkpt lat="43.81962" lon="4.62832">
        <ele>22.25</ele>
        <time>2014-11-19T14:04:46Z</time>
      </trkpt>
      <trkpt lat="43.81951" lon="4.62835">
        <ele>24.65</ele>
        <time>2014-11-19T14:04:57Z</time>
      </trkpt>
      <trkpt lat="43.81939" lon="4.62838">
        <ele>25.13</ele>
        <time>2014-11-19T14:05:07Z</time>
      </trkpt>
      <trkpt lat="43.81937" lon="4.62837">
        <ele>25.13</ele>
        <time>2014-11-19T14:05:10Z</time>
      </trkpt>
      <trkpt lat="43.81925" lon="4.62842">
        <ele>22.73</ele>
        <time>2014-11-19T14:05:21Z</time>
      </trkpt>
      <trkpt lat="43.81923" lon="4.62843">
        <ele>22.25</ele>
        <time>2014-11-19T14:05:23Z</time>
      </trkpt>
      <trkpt lat="43.81917" lon="4.62845">
        <ele>20.32</ele>
        <time>2014-11-19T14:05:28Z</time>
      </trkpt>
      <trkpt lat="43.81909" lon="4.6285">
        <ele>19.36</ele>
        <time>2014-11-19T14:05:35Z</time>
      </trkpt>
      <trkpt lat="43.81897" lon="4.62855">
        <ele>18.4</ele>
        <time>2014-11-19T14:05:46Z</time>
      </trkpt>
      <trkpt lat="43.81895" lon="4.62855">
        <ele>18.4</ele>
        <time>2014-11-19T14:05:48Z</time>
      </trkpt>
      <trkpt lat="43.81878" lon="4.62856">
        <ele>15.04</ele>
        <time>2014-11-19T14:06:03Z</time>
      </trkpt>
      <trkpt lat="43.81871" lon="4.62855">
        <ele>15.52</ele>
        <time>2014-11-19T14:06:09Z</time>
      </trkpt>
      <trkpt lat="43.81855" lon="4.62854">
        <ele>16</ele>
        <time>2014-11-19T14:06:23Z</time>
      </trkpt>
      <trkpt lat="43.81842" lon="4.62853">
        <ele>16.96</ele>
        <time>2014-11-19T14:06:35Z</time>
      </trkpt>
      <trkpt lat="43.81828" lon="4.62852">
        <ele>17.92</ele>
        <time>2014-11-19T14:06:47Z</time>
      </trkpt>
      <trkpt lat="43.81821" lon="4.6285">
        <ele>19.36</ele>
        <time>2014-11-19T14:06:53Z</time>
      </trkpt>
      <trkpt lat="43.81815" lon="4.62848">
        <ele>20.81</ele>
        <time>2014-11-19T14:06:58Z</time>
      </trkpt>
      <trkpt lat="43.81801" lon="4.62844">
        <ele>23.69</ele>
        <time>2014-11-19T14:07:11Z</time>
      </trkpt>
      <trkpt lat="43.81789" lon="4.62842">
        <ele>26.57</ele>
        <time>2014-11-19T14:07:22Z</time>
      </trkpt>
      <trkpt lat="43.81779" lon="4.62839">
        <ele>28.02</ele>
        <time>2014-11-19T14:07:32Z</time>
      </trkpt>
      <trkpt lat="43.81771" lon="4.62838">
        <ele>28.5</ele>
        <time>2014-11-19T14:07:39Z</time>
      </trkpt>
      <trkpt lat="43.81765" lon="4.62836">
        <ele>28.5</ele>
        <time>2014-11-19T14:07:44Z</time>
      </trkpt>
      <trkpt lat="43.81756" lon="4.62834">
        <ele>28.5</ele>
        <time>2014-11-19T14:07:52Z</time>
      </trkpt>
      <trkpt lat="43.81742" lon="4.62831">
        <ele>28.02</ele>
        <time>2014-11-19T14:08:04Z</time>
      </trkpt>
      <trkpt lat="43.8173" lon="4.62829">
        <ele>28.02</ele>
        <time>2014-11-19T14:08:14Z</time>
      </trkpt>
      <trkpt lat="43.8172" lon="4.62827">
        <ele>27.05</ele>
        <time>2014-11-19T14:08:23Z</time>
      </trkpt>
      <trkpt lat="43.81717" lon="4.62827">
        <ele>26.57</ele>
        <time>2014-11-19T14:08:26Z</time>
      </trkpt>
      <trkpt lat="43.81702" lon="4.62822">
        <ele>24.65</ele>
        <time>2014-11-19T14:08:39Z</time>
      </trkpt>
      <trkpt lat="43.81686" lon="4.62817">
        <ele>24.65</ele>
        <time>2014-11-19T14:08:51Z</time>
      </trkpt>
      <trkpt lat="43.81675" lon="4.62812">
        <ele>25.61</ele>
        <time>2014-11-19T14:09:02Z</time>
      </trkpt>
      <trkpt lat="43.81663" lon="4.62803">
        <ele>23.21</ele>
        <time>2014-11-19T14:09:13Z</time>
      </trkpt>
      <trkpt lat="43.81662" lon="4.62803">
        <ele>23.21</ele>
        <time>2014-11-19T14:09:14Z</time>
      </trkpt>
      <trkpt lat="43.81656" lon="4.62798">
        <ele>22.25</ele>
        <time>2014-11-19T14:09:19Z</time>
      </trkpt>
      <trkpt lat="43.81653" lon="4.62797">
        <ele>22.25</ele>
        <time>2014-11-19T14:09:22Z</time>
      </trkpt>
      <trkpt lat="43.81642" lon="4.62787">
        <ele>19.84</ele>
        <time>2014-11-19T14:09:34Z</time>
      </trkpt>
      <trkpt lat="43.8163" lon="4.62782">
        <ele>17.92</ele>
        <time>2014-11-19T14:09:44Z</time>
      </trkpt>
      <trkpt lat="43.81616" lon="4.62769">
        <ele>17.44</ele>
        <time>2014-11-19T14:09:56Z</time>
      </trkpt>
      <trkpt lat="43.81609" lon="4.62763">
        <ele>16.96</ele>
        <time>2014-11-19T14:10:04Z</time>
      </trkpt>
      <trkpt lat="43.81604" lon="4.62758">
        <ele>17.92</ele>
        <time>2014-11-19T14:10:10Z</time>
      </trkpt>
      <trkpt lat="43.81601" lon="4.62755">
        <ele>18.4</ele>
        <time>2014-11-19T14:10:14Z</time>
      </trkpt>
      <trkpt lat="43.81589" lon="4.62744">
        <ele>19.84</ele>
        <time>2014-11-19T14:10:26Z</time>
      </trkpt>
      <trkpt lat="43.81583" lon="4.62738">
        <ele>19.84</ele>
        <time>2014-11-19T14:10:33Z</time>
      </trkpt>
      <trkpt lat="43.81573" lon="4.62724">
        <ele>19.84</ele>
        <time>2014-11-19T14:10:45Z</time>
      </trkpt>
      <trkpt lat="43.81562" lon="4.62709">
        <ele>20.32</ele>
        <time>2014-11-19T14:10:58Z</time>
      </trkpt>
      <trkpt lat="43.81552" lon="4.62699">
        <ele>21.29</ele>
        <time>2014-11-19T14:11:10Z</time>
      </trkpt>
      <trkpt lat="43.81545" lon="4.62688">
        <ele>22.25</ele>
        <time>2014-11-19T14:11:20Z</time>
      </trkpt>
      <trkpt lat="43.8154" lon="4.62678">
        <ele>21.77</ele>
        <time>2014-11-19T14:11:29Z</time>
      </trkpt>
      <trkpt lat="43.81529" lon="4.62664">
        <ele>23.21</ele>
        <time>2014-11-19T14:11:42Z</time>
      </trkpt>
      <trkpt lat="43.81522" lon="4.6265">
        <ele>22.73</ele>
        <time>2014-11-19T14:11:54Z</time>
      </trkpt>
      <trkpt lat="43.81514" lon="4.62632">
        <ele>21.77</ele>
        <time>2014-11-19T14:12:07Z</time>
      </trkpt>
      <trkpt lat="43.81511" lon="4.62626">
        <ele>21.77</ele>
        <time>2014-11-19T14:12:12Z</time>
      </trkpt>
      <trkpt lat="43.81504" lon="4.62611">
        <ele>22.73</ele>
        <time>2014-11-19T14:12:24Z</time>
      </trkpt>
      <trkpt lat="43.81498" lon="4.62595">
        <ele>24.65</ele>
        <time>2014-11-19T14:12:37Z</time>
      </trkpt>
      <trkpt lat="43.81492" lon="4.62579">
        <ele>24.17</ele>
        <time>2014-11-19T14:12:50Z</time>
      </trkpt>
      <trkpt lat="43.81485" lon="4.62561">
        <ele>26.09</ele>
        <time>2014-11-19T14:13:02Z</time>
      </trkpt>
      <trkpt lat="43.81479" lon="4.62543">
        <ele>28.5</ele>
        <time>2014-11-19T14:13:14Z</time>
      </trkpt>
      <trkpt lat="43.81476" lon="4.62526">
        <ele>28.5</ele>
        <time>2014-11-19T14:13:26Z</time>
      </trkpt>
      <trkpt lat="43.81471" lon="4.62505">
        <ele>25.13</ele>
        <time>2014-11-19T14:13:39Z</time>
      </trkpt>
      <trkpt lat="43.81471" lon="4.62502">
        <ele>24.17</ele>
        <time>2014-11-19T14:13:41Z</time>
      </trkpt>
      <trkpt lat="43.81471" lon="4.62499">
        <ele>22.73</ele>
        <time>2014-11-19T14:13:43Z</time>
      </trkpt>
      <trkpt lat="43.81469" lon="4.62478">
        <ele>20.81</ele>
        <time>2014-11-19T14:13:56Z</time>
      </trkpt>
      <trkpt lat="43.81466" lon="4.62459">
        <ele>18.88</ele>
        <time>2014-11-19T14:14:08Z</time>
      </trkpt>
      <trkpt lat="43.81464" lon="4.62438">
        <ele>19.84</ele>
        <time>2014-11-19T14:14:22Z</time>
      </trkpt>
      <trkpt lat="43.81464" lon="4.62416">
        <ele>19.36</ele>
        <time>2014-11-19T14:14:34Z</time>
      </trkpt>
      <trkpt lat="43.81464" lon="4.62395">
        <ele>21.77</ele>
        <time>2014-11-19T14:14:48Z</time>
      </trkpt>
      <trkpt lat="43.81464" lon="4.62393">
        <ele>21.77</ele>
        <time>2014-11-19T14:14:49Z</time>
      </trkpt>
      <trkpt lat="43.81465" lon="4.6238">
        <ele>23.21</ele>
        <time>2014-11-19T14:14:57Z</time>
      </trkpt>
      <trkpt lat="43.81466" lon="4.62357">
        <ele>24.65</ele>
        <time>2014-11-19T14:15:12Z</time>
      </trkpt>
      <trkpt lat="43.8147" lon="4.62334">
        <ele>25.61</ele>
        <time>2014-11-19T14:15:26Z</time>
      </trkpt>
      <trkpt lat="43.81471" lon="4.62316">
        <ele>26.57</ele>
        <time>2014-11-19T14:15:36Z</time>
      </trkpt>
      <trkpt lat="43.81473" lon="4.62305">
        <ele>24.65</ele>
        <time>2014-11-19T14:15:43Z</time>
      </trkpt>
      <trkpt lat="43.81475" lon="4.6228">
        <ele>23.21</ele>
        <time>2014-11-19T14:15:57Z</time>
      </trkpt>
      <trkpt lat="43.81476" lon="4.62265">
        <ele>20.81</ele>
        <time>2014-11-19T14:16:06Z</time>
      </trkpt>
      <trkpt lat="43.81477" lon="4.62262">
        <ele>20.32</ele>
        <time>2014-11-19T14:16:08Z</time>
      </trkpt>
      <trkpt lat="43.81477" lon="4.62253">
        <ele>18.88</ele>
        <time>2014-11-19T14:16:15Z</time>
      </trkpt>
      <trkpt lat="43.81479" lon="4.62238">
        <ele>18.4</ele>
        <time>2014-11-19T14:16:23Z</time>
      </trkpt>
      <trkpt lat="43.81483" lon="4.62229">
        <ele>18.4</ele>
        <time>2014-11-19T14:16:30Z</time>
      </trkpt>
      <trkpt lat="43.81482" lon="4.62217">
        <ele>17.92</ele>
        <time>2014-11-19T14:16:46Z</time>
      </trkpt>
      <trkpt lat="43.81486" lon="4.62205">
        <ele>18.88</ele>
        <time>2014-11-19T14:17:07Z</time>
      </trkpt>
      <trkpt lat="43.81493" lon="4.62188">
        <ele>21.29</ele>
        <time>2014-11-19T14:17:25Z</time>
      </trkpt>
      <trkpt lat="43.81495" lon="4.62182">
        <ele>22.73</ele>
        <time>2014-11-19T14:17:30Z</time>
      </trkpt>
      <trkpt lat="43.81499" lon="4.62174">
        <ele>22.73</ele>
        <time>2014-11-19T14:17:39Z</time>
      </trkpt>
      <trkpt lat="43.81502" lon="4.62193">
        <ele>26.57</ele>
        <time>2014-11-19T14:17:53Z</time>
      </trkpt>
      <trkpt lat="43.81502" lon="4.62214">
        <ele>29.46</ele>
        <time>2014-11-19T14:18:06Z</time>
      </trkpt>
      <trkpt lat="43.81499" lon="4.62233">
        <ele>29.46</ele>
        <time>2014-11-19T14:18:20Z</time>
      </trkpt>
      <trkpt lat="43.81499" lon="4.62246">
        <ele>32.34</ele>
        <time>2014-11-19T14:18:33Z</time>
      </trkpt>
      <trkpt lat="43.81496" lon="4.62251">
        <ele>31.38</ele>
        <time>2014-11-19T14:18:50Z</time>
      </trkpt>
      <trkpt lat="43.815" lon="4.62248">
        <ele>29.94</ele>
        <time>2014-11-19T14:19:11Z</time>
      </trkpt>
      <trkpt lat="43.81509" lon="4.62248">
        <ele>28.5</ele>
        <time>2014-11-19T14:19:21Z</time>
      </trkpt>
      <trkpt lat="43.8152" lon="4.62253">
        <ele>28.5</ele>
        <time>2014-11-19T14:19:36Z</time>
      </trkpt>
      <trkpt lat="43.81529" lon="4.62254">
        <ele>29.94</ele>
        <time>2014-11-19T14:19:47Z</time>
      </trkpt>
      <trkpt lat="43.81542" lon="4.62257">
        <ele>28.5</ele>
        <time>2014-11-19T14:20:02Z</time>
      </trkpt>
      <trkpt lat="43.81557" lon="4.62263">
        <ele>27.05</ele>
        <time>2014-11-19T14:20:16Z</time>
      </trkpt>
      <trkpt lat="43.81571" lon="4.62268">
        <ele>26.09</ele>
        <time>2014-11-19T14:20:30Z</time>
      </trkpt>
      <trkpt lat="43.81585" lon="4.62275">
        <ele>26.09</ele>
        <time>2014-11-19T14:20:45Z</time>
      </trkpt>
      <trkpt lat="43.81599" lon="4.62279">
        <ele>25.13</ele>
        <time>2014-11-19T14:20:58Z</time>
      </trkpt>
      <trkpt lat="43.81613" lon="4.62282">
        <ele>24.17</ele>
        <time>2014-11-19T14:21:13Z</time>
      </trkpt>
      <trkpt lat="43.81624" lon="4.62275">
        <ele>23.21</ele>
        <time>2014-11-19T14:21:23Z</time>
      </trkpt>
      <trkpt lat="43.81627" lon="4.62269">
        <ele>22.73</ele>
        <time>2014-11-19T14:21:28Z</time>
      </trkpt>
      <trkpt lat="43.81636" lon="4.62251">
        <ele>20.81</ele>
        <time>2014-11-19T14:21:43Z</time>
      </trkpt>
      <trkpt lat="43.8164" lon="4.62245">
        <ele>21.29</ele>
        <time>2014-11-19T14:21:48Z</time>
      </trkpt>
      <trkpt lat="43.81648" lon="4.62236">
        <ele>24.65</ele>
        <time>2014-11-19T14:21:55Z</time>
      </trkpt>
      <trkpt lat="43.81657" lon="4.62217">
        <ele>29.46</ele>
        <time>2014-11-19T14:22:09Z</time>
      </trkpt>
      <trkpt lat="43.81659" lon="4.62212">
        <ele>30.42</ele>
        <time>2014-11-19T14:22:13Z</time>
      </trkpt>
      <trkpt lat="43.8166" lon="4.62208">
        <ele>30.9</ele>
        <time>2014-11-19T14:22:16Z</time>
      </trkpt>
      <trkpt lat="43.81665" lon="4.62195">
        <ele>33.78</ele>
        <time>2014-11-19T14:22:25Z</time>
      </trkpt>
      <trkpt lat="43.81668" lon="4.62189">
        <ele>35.23</ele>
        <time>2014-11-19T14:22:30Z</time>
      </trkpt>
      <trkpt lat="43.81673" lon="4.62183">
        <ele>35.23</ele>
        <time>2014-11-19T14:22:36Z</time>
      </trkpt>
      <trkpt lat="43.81678" lon="4.62177">
        <ele>35.23</ele>
        <time>2014-11-19T14:22:42Z</time>
      </trkpt>
      <trkpt lat="43.81692" lon="4.62164">
        <ele>34.26</ele>
        <time>2014-11-19T14:22:56Z</time>
      </trkpt>
      <trkpt lat="43.81694" lon="4.62162">
        <ele>33.78</ele>
        <time>2014-11-19T14:22:58Z</time>
      </trkpt>
      <trkpt lat="43.81697" lon="4.62158">
        <ele>33.78</ele>
        <time>2014-11-19T14:23:02Z</time>
      </trkpt>
      <trkpt lat="43.81713" lon="4.6215">
        <ele>34.26</ele>
        <time>2014-11-19T14:23:16Z</time>
      </trkpt>
      <trkpt lat="43.81727" lon="4.62141">
        <ele>34.26</ele>
        <time>2014-11-19T14:23:29Z</time>
      </trkpt>
      <trkpt lat="43.81742" lon="4.62133">
        <ele>33.3</ele>
        <time>2014-11-19T14:23:43Z</time>
      </trkpt>
      <trkpt lat="43.81758" lon="4.62128">
        <ele>31.38</ele>
        <time>2014-11-19T14:23:57Z</time>
      </trkpt>
      <trkpt lat="43.81774" lon="4.62124">
        <ele>29.46</ele>
        <time>2014-11-19T14:24:12Z</time>
      </trkpt>
      <trkpt lat="43.8179" lon="4.62123">
        <ele>29.46</ele>
        <time>2014-11-19T14:24:27Z</time>
      </trkpt>
      <trkpt lat="43.81807" lon="4.62124">
        <ele>30.42</ele>
        <time>2014-11-19T14:24:40Z</time>
      </trkpt>
      <trkpt lat="43.81823" lon="4.62119">
        <ele>28.02</ele>
        <time>2014-11-19T14:24:56Z</time>
      </trkpt>
      <trkpt lat="43.81826" lon="4.62118">
        <ele>28.5</ele>
        <time>2014-11-19T14:24:58Z</time>
      </trkpt>
      <trkpt lat="43.81831" lon="4.62119">
        <ele>28.98</ele>
        <time>2014-11-19T14:25:03Z</time>
      </trkpt>
      <trkpt lat="43.81847" lon="4.62117">
        <ele>28.5</ele>
        <time>2014-11-19T14:25:18Z</time>
      </trkpt>
      <trkpt lat="43.81862" lon="4.62106">
        <ele>29.46</ele>
        <time>2014-11-19T14:25:30Z</time>
      </trkpt>
      <trkpt lat="43.81866" lon="4.62098">
        <ele>29.46</ele>
        <time>2014-11-19T14:25:36Z</time>
      </trkpt>
      <trkpt lat="43.81869" lon="4.62089">
        <ele>30.9</ele>
        <time>2014-11-19T14:25:42Z</time>
      </trkpt>
      <trkpt lat="43.81873" lon="4.62077">
        <ele>31.86</ele>
        <time>2014-11-19T14:25:50Z</time>
      </trkpt>
      <trkpt lat="43.81877" lon="4.62068">
        <ele>31.86</ele>
        <time>2014-11-19T14:25:57Z</time>
      </trkpt>
      <trkpt lat="43.8188" lon="4.6206">
        <ele>32.34</ele>
        <time>2014-11-19T14:26:02Z</time>
      </trkpt>
      <trkpt lat="43.81886" lon="4.62046">
        <ele>31.86</ele>
        <time>2014-11-19T14:26:12Z</time>
      </trkpt>
      <trkpt lat="43.81889" lon="4.62038">
        <ele>32.82</ele>
        <time>2014-11-19T14:26:18Z</time>
      </trkpt>
      <trkpt lat="43.81897" lon="4.62023">
        <ele>33.3</ele>
        <time>2014-11-19T14:26:31Z</time>
      </trkpt>
      <trkpt lat="43.81901" lon="4.62019">
        <ele>32.82</ele>
        <time>2014-11-19T14:26:37Z</time>
      </trkpt>
      <trkpt lat="43.81907" lon="4.62002">
        <ele>32.82</ele>
        <time>2014-11-19T14:26:50Z</time>
      </trkpt>
      <trkpt lat="43.81911" lon="4.61985">
        <ele>32.82</ele>
        <time>2014-11-19T14:27:02Z</time>
      </trkpt>
      <trkpt lat="43.81913" lon="4.6198">
        <ele>33.3</ele>
        <time>2014-11-19T14:27:05Z</time>
      </trkpt>
      <trkpt lat="43.81915" lon="4.6196">
        <ele>35.71</ele>
        <time>2014-11-19T14:27:18Z</time>
      </trkpt>
      <trkpt lat="43.81916" lon="4.61939">
        <ele>37.15</ele>
        <time>2014-11-19T14:27:32Z</time>
      </trkpt>
      <trkpt lat="43.81917" lon="4.61921">
        <ele>38.11</ele>
        <time>2014-11-19T14:27:44Z</time>
      </trkpt>
      <trkpt lat="43.81917" lon="4.6191">
        <ele>38.11</ele>
        <time>2014-11-19T14:27:51Z</time>
      </trkpt>
      <trkpt lat="43.81917" lon="4.61888">
        <ele>40.03</ele>
        <time>2014-11-19T14:28:04Z</time>
      </trkpt>
      <trkpt lat="43.81918" lon="4.61873">
        <ele>41.95</ele>
        <time>2014-11-19T14:28:14Z</time>
      </trkpt>
      <trkpt lat="43.81922" lon="4.61854">
        <ele>41.95</ele>
        <time>2014-11-19T14:28:27Z</time>
      </trkpt>
      <trkpt lat="43.81927" lon="4.61839">
        <ele>44.36</ele>
        <time>2014-11-19T14:28:37Z</time>
      </trkpt>
      <trkpt lat="43.81932" lon="4.6183">
        <ele>44.36</ele>
        <time>2014-11-19T14:28:44Z</time>
      </trkpt>
      <trkpt lat="43.81935" lon="4.61826">
        <ele>44.36</ele>
        <time>2014-11-19T14:28:48Z</time>
      </trkpt>
      <trkpt lat="43.81947" lon="4.61814">
        <ele>43.88</ele>
        <time>2014-11-19T14:29:01Z</time>
      </trkpt>
      <trkpt lat="43.81955" lon="4.61807">
        <ele>45.32</ele>
        <time>2014-11-19T14:29:11Z</time>
      </trkpt>
      <trkpt lat="43.81972" lon="4.61803">
        <ele>45.32</ele>
        <time>2014-11-19T14:29:26Z</time>
      </trkpt>
      <trkpt lat="43.81988" lon="4.61799">
        <ele>47.72</ele>
        <time>2014-11-19T14:29:40Z</time>
      </trkpt>
      <trkpt lat="43.82001" lon="4.61796">
        <ele>49.65</ele>
        <time>2014-11-19T14:29:52Z</time>
      </trkpt>
      <trkpt lat="43.82012" lon="4.6179">
        <ele>48.68</ele>
        <time>2014-11-19T14:30:04Z</time>
      </trkpt>
      <trkpt lat="43.82022" lon="4.61785">
        <ele>47.24</ele>
        <time>2014-11-19T14:30:14Z</time>
      </trkpt>
      <trkpt lat="43.82034" lon="4.61776">
        <ele>49.16</ele>
        <time>2014-11-19T14:30:27Z</time>
      </trkpt>
      <trkpt lat="43.82045" lon="4.6177">
        <ele>51.57</ele>
        <time>2014-11-19T14:30:40Z</time>
      </trkpt>
      <trkpt lat="43.82057" lon="4.61767">
        <ele>52.05</ele>
        <time>2014-11-19T14:30:53Z</time>
      </trkpt>
      <trkpt lat="43.82069" lon="4.61759">
        <ele>51.57</ele>
        <time>2014-11-19T14:31:05Z</time>
      </trkpt>
      <trkpt lat="43.82082" lon="4.61753">
        <ele>53.49</ele>
        <time>2014-11-19T14:31:18Z</time>
      </trkpt>
      <trkpt lat="43.82082" lon="4.61753">
        <ele>53.97</ele>
        <time>2014-11-19T14:31:19Z</time>
      </trkpt>
      <trkpt lat="43.82093" lon="4.61748">
        <ele>55.89</ele>
        <time>2014-11-19T14:31:33Z</time>
      </trkpt>
      <trkpt lat="43.82103" lon="4.61743">
        <ele>57.34</ele>
        <time>2014-11-19T14:31:47Z</time>
      </trkpt>
      <trkpt lat="43.8211" lon="4.61739">
        <ele>57.82</ele>
        <time>2014-11-19T14:31:54Z</time>
      </trkpt>
      <trkpt lat="43.82119" lon="4.61721">
        <ele>60.22</ele>
        <time>2014-11-19T14:32:09Z</time>
      </trkpt>
      <trkpt lat="43.82122" lon="4.61708">
        <ele>62.62</ele>
        <time>2014-11-19T14:32:19Z</time>
      </trkpt>
      <trkpt lat="43.82125" lon="4.61691">
        <ele>64.07</ele>
        <time>2014-11-19T14:32:31Z</time>
      </trkpt>
      <trkpt lat="43.82127" lon="4.61681">
        <ele>64.55</ele>
        <time>2014-11-19T14:32:38Z</time>
      </trkpt>
      <trkpt lat="43.8213" lon="4.61665">
        <ele>64.07</ele>
        <time>2014-11-19T14:32:49Z</time>
      </trkpt>
      <trkpt lat="43.82131" lon="4.61659">
        <ele>64.55</ele>
        <time>2014-11-19T14:32:54Z</time>
      </trkpt>
      <trkpt lat="43.82134" lon="4.61647">
        <ele>61.66</ele>
        <time>2014-11-19T14:33:04Z</time>
      </trkpt>
      <trkpt lat="43.82136" lon="4.61628">
        <ele>57.82</ele>
        <time>2014-11-19T14:33:17Z</time>
      </trkpt>
      <trkpt lat="43.82136" lon="4.61609">
        <ele>54.45</ele>
        <time>2014-11-19T14:33:29Z</time>
      </trkpt>
      <trkpt lat="43.82138" lon="4.61592">
        <ele>54.93</ele>
        <time>2014-11-19T14:33:40Z</time>
      </trkpt>
      <trkpt lat="43.82145" lon="4.61585">
        <ele>55.89</ele>
        <time>2014-11-19T14:33:47Z</time>
      </trkpt>
      <trkpt lat="43.82157" lon="4.61589">
        <ele>58.78</ele>
        <time>2014-11-19T14:34:02Z</time>
      </trkpt>
      <trkpt lat="43.82167" lon="4.61598">
        <ele>59.74</ele>
        <time>2014-11-19T14:34:13Z</time>
      </trkpt>
      <trkpt lat="43.82183" lon="4.61604">
        <ele>62.14</ele>
        <time>2014-11-19T14:34:26Z</time>
      </trkpt>
      <trkpt lat="43.82194" lon="4.61614">
        <ele>61.18</ele>
        <time>2014-11-19T14:34:38Z</time>
      </trkpt>
      <trkpt lat="43.82207" lon="4.6162">
        <ele>61.18</ele>
        <time>2014-11-19T14:34:49Z</time>
      </trkpt>
      <trkpt lat="43.82221" lon="4.61628">
        <ele>61.66</ele>
        <time>2014-11-19T14:35:03Z</time>
      </trkpt>
      <trkpt lat="43.82238" lon="4.61639">
        <ele>64.55</ele>
        <time>2014-11-19T14:35:19Z</time>
      </trkpt>
      <trkpt lat="43.82255" lon="4.61644">
        <ele>65.99</ele>
        <time>2014-11-19T14:35:33Z</time>
      </trkpt>
      <trkpt lat="43.8227" lon="4.61649">
        <ele>65.03</ele>
        <time>2014-11-19T14:35:48Z</time>
      </trkpt>
      <trkpt lat="43.82284" lon="4.61654">
        <ele>64.07</ele>
        <time>2014-11-19T14:36:01Z</time>
      </trkpt>
      <trkpt lat="43.82294" lon="4.61659">
        <ele>64.07</ele>
        <time>2014-11-19T14:36:12Z</time>
      </trkpt>
      <trkpt lat="43.82309" lon="4.61664">
        <ele>63.58</ele>
        <time>2014-11-19T14:36:26Z</time>
      </trkpt>
      <trkpt lat="43.82312" lon="4.61664">
        <ele>63.58</ele>
        <time>2014-11-19T14:36:29Z</time>
      </trkpt>
      <trkpt lat="43.82327" lon="4.61668">
        <ele>63.58</ele>
        <time>2014-11-19T14:36:42Z</time>
      </trkpt>
      <trkpt lat="43.82334" lon="4.61673">
        <ele>63.58</ele>
        <time>2014-11-19T14:36:49Z</time>
      </trkpt>
      <trkpt lat="43.82337" lon="4.61676">
        <ele>64.55</ele>
        <time>2014-11-19T14:36:52Z</time>
      </trkpt>
      <trkpt lat="43.82344" lon="4.61692">
        <ele>70.79</ele>
        <time>2014-11-19T14:37:03Z</time>
      </trkpt>
      <trkpt lat="43.82341" lon="4.61706">
        <ele>73.68</ele>
        <time>2014-11-19T14:37:17Z</time>
      </trkpt>
      <trkpt lat="43.82338" lon="4.6172">
        <ele>76.08</ele>
        <time>2014-11-19T14:37:28Z</time>
      </trkpt>
      <trkpt lat="43.82335" lon="4.61732">
        <ele>78.48</ele>
        <time>2014-11-19T14:37:38Z</time>
      </trkpt>
      <trkpt lat="43.82334" lon="4.61735">
        <ele>78.48</ele>
        <time>2014-11-19T14:37:40Z</time>
      </trkpt>
      <trkpt lat="43.82333" lon="4.61744">
        <ele>79.93</ele>
        <time>2014-11-19T14:37:45Z</time>
      </trkpt>
      <trkpt lat="43.8233" lon="4.61763">
        <ele>83.77</ele>
        <time>2014-11-19T14:37:58Z</time>
      </trkpt>
      <trkpt lat="43.8233" lon="4.61774">
        <ele>89.54</ele>
        <time>2014-11-19T14:38:12Z</time>
      </trkpt>
      <trkpt lat="43.8233" lon="4.61776">
        <ele>90.02</ele>
        <time>2014-11-19T14:38:29Z</time>
      </trkpt>
      <trkpt lat="43.82327" lon="4.61777">
        <ele>91.46</ele>
        <time>2014-11-19T14:38:48Z</time>
      </trkpt>
      <trkpt lat="43.82329" lon="4.61777">
        <ele>91.46</ele>
        <time>2014-11-19T14:39:24Z</time>
      </trkpt>
      <trkpt lat="43.82333" lon="4.61779">
        <ele>92.9</ele>
        <time>2014-11-19T14:39:38Z</time>
      </trkpt>
      <trkpt lat="43.82332" lon="4.61788">
        <ele>92.9</ele>
        <time>2014-11-19T14:39:50Z</time>
      </trkpt>
      <trkpt lat="43.82333" lon="4.61789">
        <ele>92.42</ele>
        <time>2014-11-19T14:40:09Z</time>
      </trkpt>
      <trkpt lat="43.82334" lon="4.61787">
        <ele>93.87</ele>
        <time>2014-11-19T14:40:30Z</time>
      </trkpt>
      <trkpt lat="43.82334" lon="4.61786">
        <ele>93.39</ele>
        <time>2014-11-19T14:40:40Z</time>
      </trkpt>
      <trkpt lat="43.82338" lon="4.6179">
        <ele>95.31</ele>
        <time>2014-11-19T14:40:53Z</time>
      </trkpt>
      <trkpt lat="43.8234" lon="4.61791">
        <ele>97.23</ele>
        <time>2014-11-19T14:41:30Z</time>
      </trkpt>
      <trkpt lat="43.82336" lon="4.61792">
        <ele>94.83</ele>
        <time>2014-11-19T14:41:37Z</time>
      </trkpt>
      <trkpt lat="43.8233" lon="4.61781">
        <ele>93.39</ele>
        <time>2014-11-19T14:41:45Z</time>
      </trkpt>
      <trkpt lat="43.82337" lon="4.61778">
        <ele>91.94</ele>
        <time>2014-11-19T14:41:50Z</time>
      </trkpt>
      <trkpt lat="43.82353" lon="4.61775">
        <ele>93.39</ele>
        <time>2014-11-19T14:42:04Z</time>
      </trkpt>
      <trkpt lat="43.82367" lon="4.6178">
        <ele>92.9</ele>
        <time>2014-11-19T14:42:18Z</time>
      </trkpt>
      <trkpt lat="43.82377" lon="4.61787">
        <ele>92.42</ele>
        <time>2014-11-19T14:42:30Z</time>
      </trkpt>
      <trkpt lat="43.82387" lon="4.61794">
        <ele>93.39</ele>
        <time>2014-11-19T14:42:43Z</time>
      </trkpt>
      <trkpt lat="43.82381" lon="4.61801">
        <ele>92.9</ele>
        <time>2014-11-19T14:42:56Z</time>
      </trkpt>
      <trkpt lat="43.82378" lon="4.61806">
        <ele>90.5</ele>
        <time>2014-11-19T14:43:08Z</time>
      </trkpt>
      <trkpt lat="43.82376" lon="4.61808">
        <ele>90.98</ele>
        <time>2014-11-19T14:43:25Z</time>
      </trkpt>
      <trkpt lat="43.82377" lon="4.61805">
        <ele>87.62</ele>
        <time>2014-11-19T14:43:49Z</time>
      </trkpt>
      <trkpt lat="43.8238" lon="4.61808">
        <ele>87.62</ele>
        <time>2014-11-19T14:44:16Z</time>
      </trkpt>
      <trkpt lat="43.82382" lon="4.61805">
        <ele>90.02</ele>
        <time>2014-11-19T14:44:31Z</time>
      </trkpt>
      <trkpt lat="43.82381" lon="4.61811">
        <ele>87.62</ele>
        <time>2014-11-19T14:44:59Z</time>
      </trkpt>
      <trkpt lat="43.82382" lon="4.61809">
        <ele>87.62</ele>
        <time>2014-11-19T14:45:19Z</time>
      </trkpt>
      <trkpt lat="43.82382" lon="4.61809">
        <ele>88.1</ele>
        <time>2014-11-19T14:45:46Z</time>
      </trkpt>
      <trkpt lat="43.82381" lon="4.61806">
        <ele>89.54</ele>
        <time>2014-11-19T14:46:19Z</time>
      </trkpt>
      <trkpt lat="43.82381" lon="4.61807">
        <ele>91.94</ele>
        <time>2014-11-19T14:46:39Z</time>
      </trkpt>
      <trkpt lat="43.82381" lon="4.61807">
        <ele>93.39</ele>
        <time>2014-11-19T14:47:09Z</time>
      </trkpt>
      <trkpt lat="43.82379" lon="4.61807">
        <ele>91.94</ele>
        <time>2014-11-19T14:47:26Z</time>
      </trkpt>
      <trkpt lat="43.8238" lon="4.61805">
        <ele>90.98</ele>
        <time>2014-11-19T14:47:46Z</time>
      </trkpt>
      <trkpt lat="43.82382" lon="4.61808">
        <ele>91.94</ele>
        <time>2014-11-19T14:48:18Z</time>
      </trkpt>
      <trkpt lat="43.82382" lon="4.6181">
        <ele>89.54</ele>
        <time>2014-11-19T14:48:45Z</time>
      </trkpt>
      <trkpt lat="43.82382" lon="4.61813">
        <ele>86.66</ele>
        <time>2014-11-19T14:49:12Z</time>
      </trkpt>
      <trkpt lat="43.82381" lon="4.61813">
        <ele>86.18</ele>
        <time>2014-11-19T14:49:34Z</time>
      </trkpt>
      <trkpt lat="43.8238" lon="4.61813">
        <ele>84.73</ele>
        <time>2014-11-19T14:50:05Z</time>
      </trkpt>
      <trkpt lat="43.82381" lon="4.61812">
        <ele>86.66</ele>
        <time>2014-11-19T14:50:26Z</time>
      </trkpt>
      <trkpt lat="43.82383" lon="4.61813">
        <ele>86.66</ele>
        <time>2014-11-19T14:50:50Z</time>
      </trkpt>
      <trkpt lat="43.82384" lon="4.61814">
        <ele>86.18</ele>
        <time>2014-11-19T14:51:15Z</time>
      </trkpt>
      <trkpt lat="43.82383" lon="4.61813">
        <ele>88.58</ele>
        <time>2014-11-19T14:51:43Z</time>
      </trkpt>
      <trkpt lat="43.82385" lon="4.61812">
        <ele>88.58</ele>
        <time>2014-11-19T14:52:07Z</time>
      </trkpt>
      <trkpt lat="43.82382" lon="4.61819">
        <ele>89.54</ele>
        <time>2014-11-19T14:52:29Z</time>
      </trkpt>
      <trkpt lat="43.8238" lon="4.61823">
        <ele>87.62</ele>
        <time>2014-11-19T14:52:52Z</time>
      </trkpt>
      <trkpt lat="43.82379" lon="4.6182">
        <ele>86.18</ele>
        <time>2014-11-19T14:53:11Z</time>
      </trkpt>
      <trkpt lat="43.82379" lon="4.61814">
        <ele>87.14</ele>
        <time>2014-11-19T14:53:34Z</time>
      </trkpt>
      <trkpt lat="43.82378" lon="4.61811">
        <ele>87.14</ele>
        <time>2014-11-19T14:53:54Z</time>
      </trkpt>
      <trkpt lat="43.8238" lon="4.61809">
        <ele>88.58</ele>
        <time>2014-11-19T14:54:18Z</time>
      </trkpt>
      <trkpt lat="43.82387" lon="4.61809">
        <ele>90.02</ele>
        <time>2014-11-19T14:54:46Z</time>
      </trkpt>
      <trkpt lat="43.8238" lon="4.61805">
        <ele>95.31</ele>
        <time>2014-11-19T14:55:11Z</time>
      </trkpt>
      <trkpt lat="43.8238" lon="4.61801">
        <ele>94.83</ele>
        <time>2014-11-19T14:55:31Z</time>
      </trkpt>
      <trkpt lat="43.8238" lon="4.61802">
        <ele>93.87</ele>
        <time>2014-11-19T14:55:51Z</time>
      </trkpt>
      <trkpt lat="43.82381" lon="4.61803">
        <ele>91.94</ele>
        <time>2014-11-19T14:56:09Z</time>
      </trkpt>
      <trkpt lat="43.82381" lon="4.61801">
        <ele>93.39</ele>
        <time>2014-11-19T14:56:33Z</time>
      </trkpt>
      <trkpt lat="43.82381" lon="4.61798">
        <ele>93.39</ele>
        <time>2014-11-19T14:56:57Z</time>
      </trkpt>
      <trkpt lat="43.82382" lon="4.61803">
        <ele>93.39</ele>
        <time>2014-11-19T14:57:21Z</time>
      </trkpt>
      <trkpt lat="43.82382" lon="4.61801">
        <ele>90.98</ele>
        <time>2014-11-19T14:57:45Z</time>
      </trkpt>
      <trkpt lat="43.8238" lon="4.61804">
        <ele>92.42</ele>
        <time>2014-11-19T14:58:14Z</time>
      </trkpt>
      <trkpt lat="43.82381" lon="4.61805">
        <ele>90.02</ele>
        <time>2014-11-19T14:58:35Z</time>
      </trkpt>
      <trkpt lat="43.82381" lon="4.61804">
        <ele>87.14</ele>
        <time>2014-11-19T14:59:03Z</time>
      </trkpt>
      <trkpt lat="43.82384" lon="4.61799">
        <ele>86.18</ele>
        <time>2014-11-19T14:59:19Z</time>
      </trkpt>
      <trkpt lat="43.82386" lon="4.618">
        <ele>86.66</ele>
        <time>2014-11-19T14:59:35Z</time>
      </trkpt>
      <trkpt lat="43.82394" lon="4.61798">
        <ele>86.66</ele>
        <time>2014-11-19T14:59:59Z</time>
      </trkpt>
      <trkpt lat="43.82398" lon="4.618">
        <ele>87.14</ele>
        <time>2014-11-19T15:00:04Z</time>
      </trkpt>
      <trkpt lat="43.82414" lon="4.61806">
        <ele>87.14</ele>
        <time>2014-11-19T15:00:19Z</time>
      </trkpt>
      <trkpt lat="43.82425" lon="4.6181">
        <ele>89.54</ele>
        <time>2014-11-19T15:00:32Z</time>
      </trkpt>
      <trkpt lat="43.82439" lon="4.61806">
        <ele>90.98</ele>
        <time>2014-11-19T15:00:44Z</time>
      </trkpt>
      <trkpt lat="43.82447" lon="4.61805">
        <ele>91.94</ele>
        <time>2014-11-19T15:00:52Z</time>
      </trkpt>
      <trkpt lat="43.82461" lon="4.61795">
        <ele>91.94</ele>
        <time>2014-11-19T15:01:04Z</time>
      </trkpt>
      <trkpt lat="43.82473" lon="4.61792">
        <ele>90.5</ele>
        <time>2014-11-19T15:01:16Z</time>
      </trkpt>
      <trkpt lat="43.82487" lon="4.61791">
        <ele>89.54</ele>
        <time>2014-11-19T15:01:30Z</time>
      </trkpt>
      <trkpt lat="43.82492" lon="4.61792">
        <ele>88.58</ele>
        <time>2014-11-19T15:01:36Z</time>
      </trkpt>
      <trkpt lat="43.825" lon="4.61784">
        <ele>87.14</ele>
        <time>2014-11-19T15:01:46Z</time>
      </trkpt>
      <trkpt lat="43.82515" lon="4.6179">
        <ele>86.66</ele>
        <time>2014-11-19T15:01:59Z</time>
      </trkpt>
      <trkpt lat="43.82519" lon="4.61792">
        <ele>87.14</ele>
        <time>2014-11-19T15:02:03Z</time>
      </trkpt>
      <trkpt lat="43.82533" lon="4.61793">
        <ele>84.73</ele>
        <time>2014-11-19T15:02:16Z</time>
      </trkpt>
      <trkpt lat="43.82546" lon="4.61791">
        <ele>81.85</ele>
        <time>2014-11-19T15:02:30Z</time>
      </trkpt>
      <trkpt lat="43.82548" lon="4.61791">
        <ele>81.85</ele>
        <time>2014-11-19T15:02:32Z</time>
      </trkpt>
      <trkpt lat="43.82562" lon="4.618">
        <ele>80.89</ele>
        <time>2014-11-19T15:02:46Z</time>
      </trkpt>
      <trkpt lat="43.82565" lon="4.61815">
        <ele>78.48</ele>
        <time>2014-11-19T15:02:59Z</time>
      </trkpt>
      <trkpt lat="43.82565" lon="4.61825">
        <ele>77.52</ele>
        <time>2014-11-19T15:03:06Z</time>
      </trkpt>
      <trkpt lat="43.8256" lon="4.61842">
        <ele>75.6</ele>
        <time>2014-11-19T15:03:20Z</time>
      </trkpt>
      <trkpt lat="43.82553" lon="4.61862">
        <ele>69.83</ele>
        <time>2014-11-19T15:03:36Z</time>
      </trkpt>
      <trkpt lat="43.82548" lon="4.61872">
        <ele>68.39</ele>
        <time>2014-11-19T15:03:50Z</time>
      </trkpt>
      <trkpt lat="43.82544" lon="4.61886">
        <ele>65.51</ele>
        <time>2014-11-19T15:04:05Z</time>
      </trkpt>
      <trkpt lat="43.82541" lon="4.61889">
        <ele>65.03</ele>
        <time>2014-11-19T15:04:09Z</time>
      </trkpt>
      <trkpt lat="43.82539" lon="4.6189">
        <ele>65.03</ele>
        <time>2014-11-19T15:04:11Z</time>
      </trkpt>
      <trkpt lat="43.82533" lon="4.61908">
        <ele>64.07</ele>
        <time>2014-11-19T15:04:23Z</time>
      </trkpt>
      <trkpt lat="43.82534" lon="4.61922">
        <ele>63.1</ele>
        <time>2014-11-19T15:04:30Z</time>
      </trkpt>
      <trkpt lat="43.82533" lon="4.61935">
        <ele>63.1</ele>
        <time>2014-11-19T15:04:38Z</time>
      </trkpt>
      <trkpt lat="43.82533" lon="4.6194">
        <ele>62.14</ele>
        <time>2014-11-19T15:04:40Z</time>
      </trkpt>
      <trkpt lat="43.82536" lon="4.61966">
        <ele>59.26</ele>
        <time>2014-11-19T15:04:53Z</time>
      </trkpt>
      <trkpt lat="43.82538" lon="4.61981">
        <ele>55.41</ele>
        <time>2014-11-19T15:05:04Z</time>
      </trkpt>
      <trkpt lat="43.82538" lon="4.62">
        <ele>52.53</ele>
        <time>2014-11-19T15:05:15Z</time>
      </trkpt>
      <trkpt lat="43.82536" lon="4.62019">
        <ele>57.34</ele>
        <time>2014-11-19T15:05:27Z</time>
      </trkpt>
      <trkpt lat="43.82528" lon="4.6204">
        <ele>59.74</ele>
        <time>2014-11-19T15:05:41Z</time>
      </trkpt>
      <trkpt lat="43.82523" lon="4.62046">
        <ele>59.26</ele>
        <time>2014-11-19T15:05:47Z</time>
      </trkpt>
      <trkpt lat="43.82512" lon="4.62066">
        <ele>58.78</ele>
        <time>2014-11-19T15:06:02Z</time>
      </trkpt>
      <trkpt lat="43.82503" lon="4.6208">
        <ele>57.82</ele>
        <time>2014-11-19T15:06:14Z</time>
      </trkpt>
      <trkpt lat="43.825" lon="4.62085">
        <ele>56.86</ele>
        <time>2014-11-19T15:06:18Z</time>
      </trkpt>
      <trkpt lat="43.82491" lon="4.62099">
        <ele>56.37</ele>
        <time>2014-11-19T15:06:32Z</time>
      </trkpt>
      <trkpt lat="43.82489" lon="4.62107">
        <ele>55.89</ele>
        <time>2014-11-19T15:06:39Z</time>
      </trkpt>
      <trkpt lat="43.82484" lon="4.62116">
        <ele>54.93</ele>
        <time>2014-11-19T15:06:47Z</time>
      </trkpt>
      <trkpt lat="43.8248" lon="4.62126">
        <ele>52.53</ele>
        <time>2014-11-19T15:06:59Z</time>
      </trkpt>
      <trkpt lat="43.82473" lon="4.62145">
        <ele>52.05</ele>
        <time>2014-11-19T15:07:12Z</time>
      </trkpt>
      <trkpt lat="43.82473" lon="4.62145">
        <ele>52.05</ele>
        <time>2014-11-19T15:07:13Z</time>
      </trkpt>
      <trkpt lat="43.82465" lon="4.62151">
        <ele>52.05</ele>
        <time>2014-11-19T15:07:21Z</time>
      </trkpt>
      <trkpt lat="43.82458" lon="4.62163">
        <ele>48.68</ele>
        <time>2014-11-19T15:07:35Z</time>
      </trkpt>
      <trkpt lat="43.82451" lon="4.62176">
        <ele>46.28</ele>
        <time>2014-11-19T15:07:48Z</time>
      </trkpt>
      <trkpt lat="43.82454" lon="4.62189">
        <ele>41.95</ele>
        <time>2014-11-19T15:08:01Z</time>
      </trkpt>
      <trkpt lat="43.82459" lon="4.62204">
        <ele>39.55</ele>
        <time>2014-11-19T15:08:15Z</time>
      </trkpt>
      <trkpt lat="43.8246" lon="4.62205">
        <ele>39.55</ele>
        <time>2014-11-19T15:08:16Z</time>
      </trkpt>
      <trkpt lat="43.82468" lon="4.62217">
        <ele>36.67</ele>
        <time>2014-11-19T15:08:30Z</time>
      </trkpt>
      <trkpt lat="43.82468" lon="4.62219">
        <ele>36.19</ele>
        <time>2014-11-19T15:08:32Z</time>
      </trkpt>
      <trkpt lat="43.82474" lon="4.62238">
        <ele>33.78</ele>
        <time>2014-11-19T15:08:47Z</time>
      </trkpt>
      <trkpt lat="43.82481" lon="4.62252">
        <ele>29.94</ele>
        <time>2014-11-19T15:09:03Z</time>
      </trkpt>
      <trkpt lat="43.82481" lon="4.62253">
        <ele>29.46</ele>
        <time>2014-11-19T15:09:04Z</time>
      </trkpt>
      <trkpt lat="43.82489" lon="4.6226">
        <ele>26.09</ele>
        <time>2014-11-19T15:09:17Z</time>
      </trkpt>
      <trkpt lat="43.82491" lon="4.62264">
        <ele>26.57</ele>
        <time>2014-11-19T15:09:41Z</time>
      </trkpt>
      <trkpt lat="43.82492" lon="4.62264">
        <ele>27.05</ele>
        <time>2014-11-19T15:10:16Z</time>
      </trkpt>
      <trkpt lat="43.82491" lon="4.62266">
        <ele>28.5</ele>
        <time>2014-11-19T15:10:43Z</time>
      </trkpt>
      <trkpt lat="43.8249" lon="4.62266">
        <ele>29.46</ele>
        <time>2014-11-19T15:11:08Z</time>
      </trkpt>
      <trkpt lat="43.82491" lon="4.62268">
        <ele>28.5</ele>
        <time>2014-11-19T15:11:33Z</time>
      </trkpt>
      <trkpt lat="43.8249" lon="4.62264">
        <ele>27.53</ele>
        <time>2014-11-19T15:11:57Z</time>
      </trkpt>
      <trkpt lat="43.8249" lon="4.62266">
        <ele>25.13</ele>
        <time>2014-11-19T15:12:23Z</time>
      </trkpt>
      <trkpt lat="43.82492" lon="4.62271">
        <ele>28.5</ele>
        <time>2014-11-19T15:12:47Z</time>
      </trkpt>
      <trkpt lat="43.82499" lon="4.62266">
        <ele>29.94</ele>
        <time>2014-11-19T15:13:29Z</time>
      </trkpt>
      <trkpt lat="43.82499" lon="4.62266">
        <ele>29.94</ele>
        <time>2014-11-19T15:13:50Z</time>
      </trkpt>
      <trkpt lat="43.82505" lon="4.62273">
        <ele>28.5</ele>
        <time>2014-11-19T15:14:03Z</time>
      </trkpt>
      <trkpt lat="43.82514" lon="4.62273">
        <ele>26.09</ele>
        <time>2014-11-19T15:14:15Z</time>
      </trkpt>
      <trkpt lat="43.82524" lon="4.62281">
        <ele>24.17</ele>
        <time>2014-11-19T15:14:31Z</time>
      </trkpt>
      <trkpt lat="43.82526" lon="4.62289">
        <ele>21.77</ele>
        <time>2014-11-19T15:14:38Z</time>
      </trkpt>
      <trkpt lat="43.82534" lon="4.62306">
        <ele>20.81</ele>
        <time>2014-11-19T15:14:51Z</time>
      </trkpt>
      <trkpt lat="43.8254" lon="4.62324">
        <ele>19.36</ele>
        <time>2014-11-19T15:15:04Z</time>
      </trkpt>
      <trkpt lat="43.82542" lon="4.62326">
        <ele>18.4</ele>
        <time>2014-11-19T15:15:06Z</time>
      </trkpt>
      <trkpt lat="43.82547" lon="4.62339">
        <ele>16.48</ele>
        <time>2014-11-19T15:15:18Z</time>
      </trkpt>
      <trkpt lat="43.82551" lon="4.62348">
        <ele>13.12</ele>
        <time>2014-11-19T15:15:29Z</time>
      </trkpt>
      <trkpt lat="43.82554" lon="4.62354">
        <ele>11.67</ele>
        <time>2014-11-19T15:15:39Z</time>
      </trkpt>
      <trkpt lat="43.82556" lon="4.62356">
        <ele>12.63</ele>
        <time>2014-11-19T15:15:43Z</time>
      </trkpt>
      <trkpt lat="43.82576" lon="4.62358">
        <ele>16</ele>
        <time>2014-11-19T15:15:59Z</time>
      </trkpt>
      <trkpt lat="43.82577" lon="4.62359">
        <ele>16</ele>
        <time>2014-11-19T15:16:00Z</time>
      </trkpt>
      <trkpt lat="43.82593" lon="4.62357">
        <ele>15.04</ele>
        <time>2014-11-19T15:16:12Z</time>
      </trkpt>
      <trkpt lat="43.8261" lon="4.62349">
        <ele>15.04</ele>
        <time>2014-11-19T15:16:26Z</time>
      </trkpt>
      <trkpt lat="43.82617" lon="4.62348">
        <ele>12.63</ele>
        <time>2014-11-19T15:16:32Z</time>
      </trkpt>
      <trkpt lat="43.82625" lon="4.62348">
        <ele>11.67</ele>
        <time>2014-11-19T15:16:39Z</time>
      </trkpt>
      <trkpt lat="43.82643" lon="4.62341">
        <ele>12.15</ele>
        <time>2014-11-19T15:16:54Z</time>
      </trkpt>
      <trkpt lat="43.82655" lon="4.62343">
        <ele>11.19</ele>
        <time>2014-11-19T15:17:04Z</time>
      </trkpt>
      <trkpt lat="43.82658" lon="4.62345">
        <ele>10.71</ele>
        <time>2014-11-19T15:17:07Z</time>
      </trkpt>
      <trkpt lat="43.82674" lon="4.62358">
        <ele>7.83</ele>
        <time>2014-11-19T15:17:22Z</time>
      </trkpt>
      <trkpt lat="43.82677" lon="4.62378">
        <ele>5.91</ele>
        <time>2014-11-19T15:17:33Z</time>
      </trkpt>
      <trkpt lat="43.82682" lon="4.62385">
        <ele>6.39</ele>
        <time>2014-11-19T15:17:46Z</time>
      </trkpt>
      <trkpt lat="43.82682" lon="4.62392">
        <ele>8.31</ele>
        <time>2014-11-19T15:17:54Z</time>
      </trkpt>
      <trkpt lat="43.82672" lon="4.62424">
        <ele>9.27</ele>
        <time>2014-11-19T15:18:17Z</time>
      </trkpt>
      <trkpt lat="43.82666" lon="4.62446">
        <ele>8.79</ele>
        <time>2014-11-19T15:18:35Z</time>
      </trkpt>
      <trkpt lat="43.82657" lon="4.62459">
        <ele>8.31</ele>
        <time>2014-11-19T15:18:55Z</time>
      </trkpt>
      <trkpt lat="43.82654" lon="4.62471">
        <ele>7.83</ele>
        <time>2014-11-19T15:19:10Z</time>
      </trkpt>
      <trkpt lat="43.82654" lon="4.62475">
        <ele>9.27</ele>
        <time>2014-11-19T15:19:14Z</time>
      </trkpt>
      <trkpt lat="43.82648" lon="4.62494">
        <ele>11.19</ele>
        <time>2014-11-19T15:19:29Z</time>
      </trkpt>
      <trkpt lat="43.82641" lon="4.62506">
        <ele>13.6</ele>
        <time>2014-11-19T15:19:40Z</time>
      </trkpt>
      <trkpt lat="43.82636" lon="4.62525">
        <ele>10.71</ele>
        <time>2014-11-19T15:19:55Z</time>
      </trkpt>
      <trkpt lat="43.82634" lon="4.62527">
        <ele>9.75</ele>
        <time>2014-11-19T15:20:13Z</time>
      </trkpt>
      <trkpt lat="43.82634" lon="4.62526">
        <ele>7.35</ele>
        <time>2014-11-19T15:20:29Z</time>
      </trkpt>
      <trkpt lat="43.82636" lon="4.62527">
        <ele>8.31</ele>
        <time>2014-11-19T15:20:49Z</time>
      </trkpt>
      <trkpt lat="43.8264" lon="4.6253">
        <ele>7.35</ele>
        <time>2014-11-19T15:21:15Z</time>
      </trkpt>
      <trkpt lat="43.82642" lon="4.6253">
        <ele>4.46</ele>
        <time>2014-11-19T15:21:33Z</time>
      </trkpt>
      <trkpt lat="43.82644" lon="4.62531">
        <ele>3.98</ele>
        <time>2014-11-19T15:21:57Z</time>
      </trkpt>
      <trkpt lat="43.82649" lon="4.62532">
        <ele>2.06</ele>
        <time>2014-11-19T15:22:05Z</time>
      </trkpt>
      <trkpt lat="43.82654" lon="4.62537">
        <ele>1.1</ele>
        <time>2014-11-19T15:22:17Z</time>
      </trkpt>
      <trkpt lat="43.82655" lon="4.62538">
        <ele>1.1</ele>
        <time>2014-11-19T15:22:18Z</time>
      </trkpt>
      <trkpt lat="43.82654" lon="4.62549">
        <ele>3.02</ele>
        <time>2014-11-19T15:22:25Z</time>
      </trkpt>
      <trkpt lat="43.82647" lon="4.62567">
        <ele>3.02</ele>
        <time>2014-11-19T15:22:40Z</time>
      </trkpt>
      <trkpt lat="43.82646" lon="4.62572">
        <ele>3.5</ele>
        <time>2014-11-19T15:22:43Z</time>
      </trkpt>
      <trkpt lat="43.82648" lon="4.62588">
        <ele>2.54</ele>
        <time>2014-11-19T15:22:56Z</time>
      </trkpt>
      <trkpt lat="43.82649" lon="4.626">
        <ele>2.54</ele>
        <time>2014-11-19T15:23:05Z</time>
      </trkpt>
      <trkpt lat="43.82642" lon="4.62618">
        <ele>2.54</ele>
        <time>2014-11-19T15:23:19Z</time>
      </trkpt>
      <trkpt lat="43.82633" lon="4.62633">
        <ele>3.02</ele>
        <time>2014-11-19T15:23:32Z</time>
      </trkpt>
      <trkpt lat="43.82623" lon="4.62649">
        <ele>3.02</ele>
        <time>2014-11-19T15:23:45Z</time>
      </trkpt>
      <trkpt lat="43.82611" lon="4.62663">
        <ele>2.54</ele>
        <time>2014-11-19T15:23:58Z</time>
      </trkpt>
      <trkpt lat="43.82598" lon="4.62676">
        <ele>3.5</ele>
        <time>2014-11-19T15:24:12Z</time>
      </trkpt>
      <trkpt lat="43.82585" lon="4.62689">
        <ele>3.02</ele>
        <time>2014-11-19T15:24:25Z</time>
      </trkpt>
      <trkpt lat="43.82572" lon="4.62703">
        <ele>1.1</ele>
        <time>2014-11-19T15:24:39Z</time>
      </trkpt>
      <trkpt lat="43.82567" lon="4.62709">
        <ele>0.62</ele>
        <time>2014-11-19T15:24:46Z</time>
      </trkpt>
      <trkpt lat="43.82558" lon="4.62727">
        <ele>-0.34</ele>
        <time>2014-11-19T15:25:00Z</time>
      </trkpt>
      <trkpt lat="43.82552" lon="4.62743">
        <ele>0.14</ele>
        <time>2014-11-19T15:25:13Z</time>
      </trkpt>
      <trkpt lat="43.8255" lon="4.62749">
        <ele>-0.34</ele>
        <time>2014-11-19T15:25:17Z</time>
      </trkpt>
      <trkpt lat="43.82543" lon="4.62769">
        <ele>-0.34</ele>
        <time>2014-11-19T15:25:29Z</time>
      </trkpt>
      <trkpt lat="43.82537" lon="4.62785">
        <ele>0.14</ele>
        <time>2014-11-19T15:25:41Z</time>
      </trkpt>
      <trkpt lat="43.82533" lon="4.62798">
        <ele>0.62</ele>
        <time>2014-11-19T15:25:52Z</time>
      </trkpt>
      <trkpt lat="43.82529" lon="4.62813">
        <ele>0.62</ele>
        <time>2014-11-19T15:26:04Z</time>
      </trkpt>
      <trkpt lat="43.82524" lon="4.62826">
        <ele>0.62</ele>
        <time>2014-11-19T15:26:15Z</time>
      </trkpt>
      <trkpt lat="43.82521" lon="4.62843">
        <ele>0.62</ele>
        <time>2014-11-19T15:26:27Z</time>
      </trkpt>
      <trkpt lat="43.82516" lon="4.62855">
        <ele>1.1</ele>
        <time>2014-11-19T15:26:40Z</time>
      </trkpt>
      <trkpt lat="43.82509" lon="4.6287">
        <ele>0.62</ele>
        <time>2014-11-19T15:26:52Z</time>
      </trkpt>
      <trkpt lat="43.82499" lon="4.62886">
        <ele>0.14</ele>
        <time>2014-11-19T15:27:06Z</time>
      </trkpt>
      <trkpt lat="43.82489" lon="4.62898">
        <ele>-0.82</ele>
        <time>2014-11-19T15:27:18Z</time>
      </trkpt>
      <trkpt lat="43.82488" lon="4.629">
        <ele>-0.34</ele>
        <time>2014-11-19T15:27:20Z</time>
      </trkpt>
      <trkpt lat="43.82478" lon="4.62915">
        <ele>-0.34</ele>
        <time>2014-11-19T15:27:34Z</time>
      </trkpt>
      <trkpt lat="43.8247" lon="4.62927">
        <ele>0.62</ele>
        <time>2014-11-19T15:27:44Z</time>
      </trkpt>
      <trkpt lat="43.82462" lon="4.62946">
        <ele>0.14</ele>
        <time>2014-11-19T15:27:58Z</time>
      </trkpt>
      <trkpt lat="43.82455" lon="4.62959">
        <ele>0.14</ele>
        <time>2014-11-19T15:28:09Z</time>
      </trkpt>
      <trkpt lat="43.82446" lon="4.62981">
        <ele>0.14</ele>
        <time>2014-11-19T15:28:23Z</time>
      </trkpt>
      <trkpt lat="43.8244" lon="4.62996">
        <ele>1.1</ele>
        <time>2014-11-19T15:28:35Z</time>
      </trkpt>
      <trkpt lat="43.82435" lon="4.63004">
        <ele>0.62</ele>
        <time>2014-11-19T15:28:44Z</time>
      </trkpt>
      <trkpt lat="43.82433" lon="4.63013">
        <ele>0.14</ele>
        <time>2014-11-19T15:28:48Z</time>
      </trkpt>
      <trkpt lat="43.82429" lon="4.63028">
        <ele>2.54</ele>
        <time>2014-11-19T15:28:56Z</time>
      </trkpt>
      <trkpt lat="43.8242" lon="4.63047">
        <ele>1.58</ele>
        <time>2014-11-19T15:29:08Z</time>
      </trkpt>
      <trkpt lat="43.82412" lon="4.63063">
        <ele>0.14</ele>
        <time>2014-11-19T15:29:23Z</time>
      </trkpt>
      <trkpt lat="43.82407" lon="4.63073">
        <ele>-0.34</ele>
        <time>2014-11-19T15:29:31Z</time>
      </trkpt>
      <trkpt lat="43.82406" lon="4.63083">
        <ele>0.14</ele>
        <time>2014-11-19T15:29:37Z</time>
      </trkpt>
      <trkpt lat="43.82404" lon="4.63086">
        <ele>0.14</ele>
        <time>2014-11-19T15:29:39Z</time>
      </trkpt>
      <trkpt lat="43.82398" lon="4.63107">
        <ele>-0.34</ele>
        <time>2014-11-19T15:29:54Z</time>
      </trkpt>
      <trkpt lat="43.82393" lon="4.63128">
        <ele>0.14</ele>
        <time>2014-11-19T15:30:06Z</time>
      </trkpt>
      <trkpt lat="43.82387" lon="4.63149">
        <ele>0.62</ele>
        <time>2014-11-19T15:30:21Z</time>
      </trkpt>
      <trkpt lat="43.82384" lon="4.63164">
        <ele>0.14</ele>
        <time>2014-11-19T15:30:32Z</time>
      </trkpt>
      <trkpt lat="43.82378" lon="4.63184">
        <ele>0.62</ele>
        <time>2014-11-19T15:30:44Z</time>
      </trkpt>
      <trkpt lat="43.82373" lon="4.63205">
        <ele>1.1</ele>
        <time>2014-11-19T15:30:56Z</time>
      </trkpt>
      <trkpt lat="43.82366" lon="4.63222">
        <ele>-0.34</ele>
        <time>2014-11-19T15:31:09Z</time>
      </trkpt>
      <trkpt lat="43.82362" lon="4.63242">
        <ele>-1.3</ele>
        <time>2014-11-19T15:31:21Z</time>
      </trkpt>
      <trkpt lat="43.82359" lon="4.63253">
        <ele>-1.3</ele>
        <time>2014-11-19T15:31:28Z</time>
      </trkpt>
      <trkpt lat="43.82356" lon="4.63274">
        <ele>0.14</ele>
        <time>2014-11-19T15:31:39Z</time>
      </trkpt>
      <trkpt lat="43.82352" lon="4.63288">
        <ele>-0.34</ele>
        <time>2014-11-19T15:31:49Z</time>
      </trkpt>
      <trkpt lat="43.82347" lon="4.63299">
        <ele>-1.3</ele>
        <time>2014-11-19T15:31:56Z</time>
      </trkpt>
      <trkpt lat="43.82342" lon="4.63325">
        <ele>0.14</ele>
        <time>2014-11-19T15:32:12Z</time>
      </trkpt>
      <trkpt lat="43.82339" lon="4.63342">
        <ele>0.14</ele>
        <time>2014-11-19T15:32:23Z</time>
      </trkpt>
      <trkpt lat="43.82329" lon="4.6336">
        <ele>-0.82</ele>
        <time>2014-11-19T15:32:36Z</time>
      </trkpt>
      <trkpt lat="43.8232" lon="4.63376">
        <ele>-1.79</ele>
        <time>2014-11-19T15:32:49Z</time>
      </trkpt>
      <trkpt lat="43.82316" lon="4.63387">
        <ele>-1.3</ele>
        <time>2014-11-19T15:32:59Z</time>
      </trkpt>
      <trkpt lat="43.82312" lon="4.63391">
        <ele>-1.3</ele>
        <time>2014-11-19T15:33:02Z</time>
      </trkpt>
      <trkpt lat="43.82305" lon="4.63409">
        <ele>-1.79</ele>
        <time>2014-11-19T15:33:15Z</time>
      </trkpt>
      <trkpt lat="43.82297" lon="4.63424">
        <ele>-1.3</ele>
        <time>2014-11-19T15:33:26Z</time>
      </trkpt>
      <trkpt lat="43.82288" lon="4.6344">
        <ele>-4.19</ele>
        <time>2014-11-19T15:33:39Z</time>
      </trkpt>
      <trkpt lat="43.82279" lon="4.63454">
        <ele>-3.71</ele>
        <time>2014-11-19T15:33:51Z</time>
      </trkpt>
      <trkpt lat="43.82276" lon="4.63459">
        <ele>-3.71</ele>
        <time>2014-11-19T15:33:56Z</time>
      </trkpt>
      <trkpt lat="43.82265" lon="4.63474">
        <ele>-4.19</ele>
        <time>2014-11-19T15:34:09Z</time>
      </trkpt>
      <trkpt lat="43.82264" lon="4.63475">
        <ele>-4.19</ele>
        <time>2014-11-19T15:34:10Z</time>
      </trkpt>
      <trkpt lat="43.82257" lon="4.6349">
        <ele>-3.23</ele>
        <time>2014-11-19T15:34:19Z</time>
      </trkpt>
      <trkpt lat="43.82245" lon="4.63506">
        <ele>-1.79</ele>
        <time>2014-11-19T15:34:33Z</time>
      </trkpt>
      <trkpt lat="43.82235" lon="4.63524">
        <ele>-0.34</ele>
        <time>2014-11-19T15:34:47Z</time>
      </trkpt>
      <trkpt lat="43.82225" lon="4.63535">
        <ele>3.5</ele>
        <time>2014-11-19T15:34:59Z</time>
      </trkpt>
      <trkpt lat="43.82215" lon="4.63553">
        <ele>2.06</ele>
        <time>2014-11-19T15:35:14Z</time>
      </trkpt>
      <trkpt lat="43.8221" lon="4.63567">
        <ele>-0.34</ele>
        <time>2014-11-19T15:35:27Z</time>
      </trkpt>
      <trkpt lat="43.82202" lon="4.63583">
        <ele>-1.3</ele>
        <time>2014-11-19T15:35:40Z</time>
      </trkpt>
      <trkpt lat="43.82189" lon="4.63608">
        <ele>-1.3</ele>
        <time>2014-11-19T15:35:56Z</time>
      </trkpt>
      <trkpt lat="43.82178" lon="4.63625">
        <ele>2.54</ele>
        <time>2014-11-19T15:36:09Z</time>
      </trkpt>
      <trkpt lat="43.82164" lon="4.63645">
        <ele>4.46</ele>
        <time>2014-11-19T15:36:24Z</time>
      </trkpt>
      <trkpt lat="43.82158" lon="4.63656">
        <ele>5.42</ele>
        <time>2014-11-19T15:36:32Z</time>
      </trkpt>
      <trkpt lat="43.82145" lon="4.63677">
        <ele>4.94</ele>
        <time>2014-11-19T15:36:47Z</time>
      </trkpt>
      <trkpt lat="43.82138" lon="4.63698">
        <ele>4.94</ele>
        <time>2014-11-19T15:37:00Z</time>
      </trkpt>
      <trkpt lat="43.82125" lon="4.63722">
        <ele>3.98</ele>
        <time>2014-11-19T15:37:18Z</time>
      </trkpt>
      <trkpt lat="43.82113" lon="4.63745">
        <ele>5.91</ele>
        <time>2014-11-19T15:37:36Z</time>
      </trkpt>
      <trkpt lat="43.82103" lon="4.63761">
        <ele>4.46</ele>
        <time>2014-11-19T15:37:48Z</time>
      </trkpt>
      <trkpt lat="43.8209" lon="4.63779">
        <ele>3.5</ele>
        <time>2014-11-19T15:38:04Z</time>
      </trkpt>
      <trkpt lat="43.8208" lon="4.63797">
        <ele>3.98</ele>
        <time>2014-11-19T15:38:19Z</time>
      </trkpt>
      <trkpt lat="43.82073" lon="4.63815">
        <ele>4.94</ele>
        <time>2014-11-19T15:38:32Z</time>
      </trkpt>
      <trkpt lat="43.82064" lon="4.63832">
        <ele>4.94</ele>
        <time>2014-11-19T15:38:46Z</time>
      </trkpt>
      <trkpt lat="43.82054" lon="4.63849">
        <ele>4.46</ele>
        <time>2014-11-19T15:39:00Z</time>
      </trkpt>
      <trkpt lat="43.82043" lon="4.63866">
        <ele>4.94</ele>
        <time>2014-11-19T15:39:15Z</time>
      </trkpt>
      <trkpt lat="43.82033" lon="4.63883">
        <ele>4.94</ele>
        <time>2014-11-19T15:39:29Z</time>
      </trkpt>
      <trkpt lat="43.82021" lon="4.63901">
        <ele>3.5</ele>
        <time>2014-11-19T15:39:45Z</time>
      </trkpt>
      <trkpt lat="43.82014" lon="4.63922">
        <ele>2.54</ele>
        <time>2014-11-19T15:40:02Z</time>
      </trkpt>
      <trkpt lat="43.82005" lon="4.6394">
        <ele>3.5</ele>
        <time>2014-11-19T15:40:18Z</time>
      </trkpt>
      <trkpt lat="43.81994" lon="4.63954">
        <ele>4.46</ele>
        <time>2014-11-19T15:40:31Z</time>
      </trkpt>
      <trkpt lat="43.81985" lon="4.63969">
        <ele>3.5</ele>
        <time>2014-11-19T15:40:44Z</time>
      </trkpt>
      <trkpt lat="43.81973" lon="4.63985">
        <ele>2.54</ele>
        <time>2014-11-19T15:40:58Z</time>
      </trkpt>
      <trkpt lat="43.81958" lon="4.63997">
        <ele>1.58</ele>
        <time>2014-11-19T15:41:15Z</time>
      </trkpt>
      <trkpt lat="43.81946" lon="4.64011">
        <ele>3.02</ele>
        <time>2014-11-19T15:41:30Z</time>
      </trkpt>
      <trkpt lat="43.81935" lon="4.64023">
        <ele>3.98</ele>
        <time>2014-11-19T15:41:47Z</time>
      </trkpt>
      <trkpt lat="43.81926" lon="4.64028">
        <ele>3.5</ele>
        <time>2014-11-19T15:42:02Z</time>
      </trkpt>
      <trkpt lat="43.81919" lon="4.64037">
        <ele>3.02</ele>
        <time>2014-11-19T15:42:17Z</time>
      </trkpt>
      <trkpt lat="43.81912" lon="4.64049">
        <ele>3.5</ele>
        <time>2014-11-19T15:42:33Z</time>
      </trkpt>
      <trkpt lat="43.81906" lon="4.64066">
        <ele>3.5</ele>
        <time>2014-11-19T15:42:50Z</time>
      </trkpt>
      <trkpt lat="43.81896" lon="4.64079">
        <ele>3.98</ele>
        <time>2014-11-19T15:43:04Z</time>
      </trkpt>
      <trkpt lat="43.81886" lon="4.64089">
        <ele>3.5</ele>
        <time>2014-11-19T15:43:17Z</time>
      </trkpt>
      <trkpt lat="43.81874" lon="4.64095">
        <ele>2.54</ele>
        <time>2014-11-19T15:43:31Z</time>
      </trkpt>
      <trkpt lat="43.81864" lon="4.64105">
        <ele>4.46</ele>
        <time>2014-11-19T15:43:45Z</time>
      </trkpt>
      <trkpt lat="43.81853" lon="4.64119">
        <ele>1.58</ele>
        <time>2014-11-19T15:43:59Z</time>
      </trkpt>
      <trkpt lat="43.8185" lon="4.64122">
        <ele>1.1</ele>
        <time>2014-11-19T15:44:03Z</time>
      </trkpt>
      <trkpt lat="43.8184" lon="4.64137">
        <ele>1.1</ele>
        <time>2014-11-19T15:44:17Z</time>
      </trkpt>
      <trkpt lat="43.81829" lon="4.64149">
        <ele>0.62</ele>
        <time>2014-11-19T15:44:32Z</time>
      </trkpt>
      <trkpt lat="43.81815" lon="4.64166">
        <ele>0.14</ele>
        <time>2014-11-19T15:44:48Z</time>
      </trkpt>
      <trkpt lat="43.81802" lon="4.6418">
        <ele>1.1</ele>
        <time>2014-11-19T15:45:05Z</time>
      </trkpt>
      <trkpt lat="43.81793" lon="4.64193">
        <ele>0.14</ele>
        <time>2014-11-19T15:45:20Z</time>
      </trkpt>
      <trkpt lat="43.81787" lon="4.64205">
        <ele>-0.82</ele>
        <time>2014-11-19T15:45:35Z</time>
      </trkpt>
      <trkpt lat="43.81779" lon="4.64209">
        <ele>-0.82</ele>
        <time>2014-11-19T15:45:54Z</time>
      </trkpt>
      <trkpt lat="43.81774" lon="4.64214">
        <ele>-1.3</ele>
        <time>2014-11-19T15:46:10Z</time>
      </trkpt>
      <trkpt lat="43.81764" lon="4.64227">
        <ele>0.14</ele>
        <time>2014-11-19T15:46:26Z</time>
      </trkpt>
      <trkpt lat="43.81754" lon="4.64238">
        <ele>0.14</ele>
        <time>2014-11-19T15:46:40Z</time>
      </trkpt>
      <trkpt lat="43.81744" lon="4.64251">
        <ele>-1.79</ele>
        <time>2014-11-19T15:46:56Z</time>
      </trkpt>
      <trkpt lat="43.81734" lon="4.64264">
        <ele>-2.75</ele>
        <time>2014-11-19T15:47:11Z</time>
      </trkpt>
      <trkpt lat="43.81724" lon="4.64272">
        <ele>-0.82</ele>
        <time>2014-11-19T15:47:25Z</time>
      </trkpt>
      <trkpt lat="43.81713" lon="4.64284">
        <ele>-0.82</ele>
        <time>2014-11-19T15:47:41Z</time>
      </trkpt>
      <trkpt lat="43.81705" lon="4.64293">
        <ele>-4.19</ele>
        <time>2014-11-19T15:47:55Z</time>
      </trkpt>
      <trkpt lat="43.81696" lon="4.64305">
        <ele>-5.15</ele>
        <time>2014-11-19T15:48:09Z</time>
      </trkpt>
      <trkpt lat="43.81686" lon="4.64314">
        <ele>-4.67</ele>
        <time>2014-11-19T15:48:24Z</time>
      </trkpt>
      <trkpt lat="43.81673" lon="4.6433">
        <ele>-0.82</ele>
        <time>2014-11-19T15:48:38Z</time>
      </trkpt>
      <trkpt lat="43.81664" lon="4.64341">
        <ele>-1.79</ele>
        <time>2014-11-19T15:48:52Z</time>
      </trkpt>
      <trkpt lat="43.81652" lon="4.64353">
        <ele>-3.23</ele>
        <time>2014-11-19T15:49:08Z</time>
      </trkpt>
      <trkpt lat="43.81636" lon="4.64366">
        <ele>-2.75</ele>
        <time>2014-11-19T15:49:24Z</time>
      </trkpt>
      <trkpt lat="43.81628" lon="4.64376">
        <ele>-5.63</ele>
        <time>2014-11-19T15:49:39Z</time>
      </trkpt>
      <trkpt lat="43.81618" lon="4.64385">
        <ele>-5.63</ele>
        <time>2014-11-19T15:49:53Z</time>
      </trkpt>
      <trkpt lat="43.81605" lon="4.64399">
        <ele>-2.75</ele>
        <time>2014-11-19T15:50:07Z</time>
      </trkpt>
      <trkpt lat="43.81595" lon="4.64413">
        <ele>-2.75</ele>
        <time>2014-11-19T15:50:22Z</time>
      </trkpt>
      <trkpt lat="43.81591" lon="4.64417">
        <ele>-2.27</ele>
        <time>2014-11-19T15:50:28Z</time>
      </trkpt>
      <trkpt lat="43.81578" lon="4.64428">
        <ele>-2.27</ele>
        <time>2014-11-19T15:50:43Z</time>
      </trkpt>
      <trkpt lat="43.8157" lon="4.64437">
        <ele>-3.71</ele>
        <time>2014-11-19T15:50:55Z</time>
      </trkpt>
      <trkpt lat="43.81557" lon="4.64447">
        <ele>-2.27</ele>
        <time>2014-11-19T15:51:10Z</time>
      </trkpt>
      <trkpt lat="43.81549" lon="4.64452">
        <ele>-1.79</ele>
        <time>2014-11-19T15:51:22Z</time>
      </trkpt>
      <trkpt lat="43.81538" lon="4.64461">
        <ele>-2.75</ele>
        <time>2014-11-19T15:51:37Z</time>
      </trkpt>
      <trkpt lat="43.81529" lon="4.64467">
        <ele>-3.23</ele>
        <time>2014-11-19T15:51:52Z</time>
      </trkpt>
      <trkpt lat="43.81521" lon="4.64476">
        <ele>-2.27</ele>
        <time>2014-11-19T15:52:05Z</time>
      </trkpt>
      <trkpt lat="43.81518" lon="4.64478">
        <ele>-2.27</ele>
        <time>2014-11-19T15:52:08Z</time>
      </trkpt>
      <trkpt lat="43.81497" lon="4.64499">
        <ele>0.14</ele>
        <time>2014-11-19T15:52:27Z</time>
      </trkpt>
      <trkpt lat="43.81485" lon="4.64512">
        <ele>-0.82</ele>
        <time>2014-11-19T15:52:42Z</time>
      </trkpt>
      <trkpt lat="43.81473" lon="4.64528">
        <ele>0.62</ele>
        <time>2014-11-19T15:52:57Z</time>
      </trkpt>
      <trkpt lat="43.81464" lon="4.6454">
        <ele>0.14</ele>
        <time>2014-11-19T15:53:08Z</time>
      </trkpt>
      <trkpt lat="43.81447" lon="4.64556">
        <ele>1.58</ele>
        <time>2014-11-19T15:53:24Z</time>
      </trkpt>
      <trkpt lat="43.81433" lon="4.64573">
        <ele>4.46</ele>
        <time>2014-11-19T15:53:39Z</time>
      </trkpt>
      <trkpt lat="43.81428" lon="4.6458">
        <ele>5.42</ele>
        <time>2014-11-19T15:53:46Z</time>
      </trkpt>
      <trkpt lat="43.81412" lon="4.64598">
        <ele>7.35</ele>
        <time>2014-11-19T15:54:03Z</time>
      </trkpt>
      <trkpt lat="43.81399" lon="4.64613">
        <ele>5.91</ele>
        <time>2014-11-19T15:54:20Z</time>
      </trkpt>
      <trkpt lat="43.81383" lon="4.64627">
        <ele>7.35</ele>
        <time>2014-11-19T15:54:36Z</time>
      </trkpt>
      <trkpt lat="43.81373" lon="4.64642">
        <ele>8.31</ele>
        <time>2014-11-19T15:54:51Z</time>
      </trkpt>
      <trkpt lat="43.81363" lon="4.64657">
        <ele>6.87</ele>
        <time>2014-11-19T15:55:05Z</time>
      </trkpt>
      <trkpt lat="43.81347" lon="4.64671">
        <ele>6.87</ele>
        <time>2014-11-19T15:55:20Z</time>
      </trkpt>
      <trkpt lat="43.81332" lon="4.64679">
        <ele>6.39</ele>
        <time>2014-11-19T15:55:35Z</time>
      </trkpt>
      <trkpt lat="43.81316" lon="4.64671">
        <ele>2.54</ele>
        <time>2014-11-19T15:55:53Z</time>
      </trkpt>
      <trkpt lat="43.81306" lon="4.64659">
        <ele>2.06</ele>
        <time>2014-11-19T15:56:09Z</time>
      </trkpt>
      <trkpt lat="43.8129" lon="4.64646">
        <ele>2.06</ele>
        <time>2014-11-19T15:56:23Z</time>
      </trkpt>
      <trkpt lat="43.81287" lon="4.64638">
        <ele>4.46</ele>
        <time>2014-11-19T15:56:29Z</time>
      </trkpt>
      <trkpt lat="43.81274" lon="4.64617">
        <ele>8.79</ele>
        <time>2014-11-19T15:56:43Z</time>
      </trkpt>
      <trkpt lat="43.81262" lon="4.64602">
        <ele>7.83</ele>
        <time>2014-11-19T15:56:59Z</time>
      </trkpt>
      <trkpt lat="43.81253" lon="4.64588">
        <ele>7.83</ele>
        <time>2014-11-19T15:57:13Z</time>
      </trkpt>
      <trkpt lat="43.81245" lon="4.64579">
        <ele>8.31</ele>
        <time>2014-11-19T15:57:21Z</time>
      </trkpt>
      <trkpt lat="43.81233" lon="4.64562">
        <ele>8.31</ele>
        <time>2014-11-19T15:57:35Z</time>
      </trkpt>
      <trkpt lat="43.81223" lon="4.64548">
        <ele>9.27</ele>
        <time>2014-11-19T15:57:45Z</time>
      </trkpt>
      <trkpt lat="43.8121" lon="4.6453">
        <ele>7.83</ele>
        <time>2014-11-19T15:58:01Z</time>
      </trkpt>
      <trkpt lat="43.81196" lon="4.64512">
        <ele>7.35</ele>
        <time>2014-11-19T15:58:16Z</time>
      </trkpt>
      <trkpt lat="43.81188" lon="4.645">
        <ele>5.91</ele>
        <time>2014-11-19T15:58:27Z</time>
      </trkpt>
      <trkpt lat="43.81179" lon="4.64485">
        <ele>4.94</ele>
        <time>2014-11-19T15:58:41Z</time>
      </trkpt>
      <trkpt lat="43.81171" lon="4.64471">
        <ele>5.42</ele>
        <time>2014-11-19T15:58:56Z</time>
      </trkpt>
      <trkpt lat="43.81167" lon="4.64464">
        <ele>5.91</ele>
        <time>2014-11-19T15:59:11Z</time>
      </trkpt>
      <trkpt lat="43.81159" lon="4.64459">
        <ele>4.94</ele>
        <time>2014-11-19T15:59:22Z</time>
      </trkpt>
      <trkpt lat="43.81151" lon="4.64447">
        <ele>4.46</ele>
        <time>2014-11-19T15:59:36Z</time>
      </trkpt>
      <trkpt lat="43.8115" lon="4.64446">
        <ele>4.46</ele>
        <time>2014-11-19T15:59:38Z</time>
      </trkpt>
      <trkpt lat="43.81146" lon="4.64434">
        <ele>8.31</ele>
        <time>2014-11-19T15:59:51Z</time>
      </trkpt>
      <trkpt lat="43.81143" lon="4.64426">
        <ele>6.39</ele>
        <time>2014-11-19T16:00:18Z</time>
      </trkpt>
      <trkpt lat="43.81143" lon="4.64427">
        <ele>4.94</ele>
        <time>2014-11-19T16:00:37Z</time>
      </trkpt>
      <trkpt lat="43.81144" lon="4.64432">
        <ele>2.54</ele>
        <time>2014-11-19T16:01:05Z</time>
      </trkpt>
    </trkseg>
  </trk>
</gpx>